<?xml version="1.0" encoding="UTF-8" standalone="no" ?><gpx xmlns="http://www.topografix.com/GPX/1/1" xmlns:gpxx="http://www.garmin.com/xmlschemas/GpxExtensions/v3" xmlns:wptx1="http://www.garmin.com/xmlschemas/WaypointExtension/v1" xmlns:gpxtpx="http://www.garmin.com/xmlschemas/TrackPointExtension/v1" creator="GuideVTT.com" version="1.1" xmlns:xsi="http://www.w3.org/2001/XMLSchema-instance" xsi:schemaLocation="http://www.topografix.com/GPX/1/1 http://www.topografix.com/GPX/1/1/gpx.xsd http://www.garmin.com/xmlschemas/GpxExtensions/v3 http://www8.garmin.com/xmlschemas/GpxExtensionsv3.xsd http://www.garmin.com/xmlschemas/WaypointExtension/v1 http://www8.garmin.com/xmlschemas/WaypointExtensionv1.xsd http://www.garmin.com/xmlschemas/TrackPointExtension/v1 http://www.garmin.com/xmlschemas/TrackPointExtensionv1.xsd">
<metadata><link href="http://www.garmin.com"><text>Garmin International</text></link><time>2013-06-22T15:13:50Z</time></metadata>
<trk><name>rp2017_07.gpx</name><extensions><gpxx:TrackExtension><gpxx:DisplayColor>Cyan</gpxx:DisplayColor></gpxx:TrackExtension></extensions><trkseg>
<trkpt lat="46.998" lon="6.90891"><ele>644.6</ele><time>2017-05-17T16:43:41Z</time></trkpt>
<trkpt lat="46.99806" lon="6.90876"><ele>645.6</ele><time>2017-05-17T16:43:50Z</time></trkpt>
<trkpt lat="46.99809" lon="6.90875"><ele>646.4</ele><time>2017-05-17T16:43:52Z</time></trkpt>
<trkpt lat="46.99816" lon="6.90864"><ele>657.8</ele><time>2017-05-17T16:43:59Z</time></trkpt>
<trkpt lat="46.9982" lon="6.90856"><ele>649</ele><time>2017-05-17T16:44:02Z</time></trkpt>
<trkpt lat="46.99822" lon="6.90851"><ele>650.4</ele><time>2017-05-17T16:44:03Z</time></trkpt>
<trkpt lat="46.99825" lon="6.90842"><ele>649.6</ele><time>2017-05-17T16:44:07Z</time></trkpt>
<trkpt lat="46.99827" lon="6.90823"><ele>651.8</ele><time>2017-05-17T16:44:13Z</time></trkpt>
<trkpt lat="46.99841" lon="6.90804"><ele>652.2</ele><time>2017-05-17T16:44:24Z</time></trkpt>
<trkpt lat="46.99851" lon="6.90795"><ele>653</ele><time>2017-05-17T16:44:32Z</time></trkpt>
<trkpt lat="46.99854" lon="6.90793"><ele>653.4</ele><time>2017-05-17T16:44:35Z</time></trkpt>
<trkpt lat="46.99857" lon="6.90793"><ele>655</ele><time>2017-05-17T16:44:39Z</time></trkpt>
<trkpt lat="46.99858" lon="6.90795"><ele>655.2</ele><time>2017-05-17T16:44:42Z</time></trkpt>
<trkpt lat="46.99865" lon="6.90795"><ele>649.6</ele><time>2017-05-17T16:44:54Z</time></trkpt>
<trkpt lat="46.99868" lon="6.908"><ele>651.6</ele><time>2017-05-17T16:45:03Z</time></trkpt>
<trkpt lat="46.99869" lon="6.90802"><ele>652</ele><time>2017-05-17T16:45:06Z</time></trkpt>
<trkpt lat="46.99869" lon="6.90803"><ele>652.2</ele><time>2017-05-17T16:45:09Z</time></trkpt>
<trkpt lat="46.99868" lon="6.90806"><ele>652.2</ele><time>2017-05-17T16:45:14Z</time></trkpt>
<trkpt lat="46.99863" lon="6.90809"><ele>649.4</ele><time>2017-05-17T16:45:32Z</time></trkpt>
<trkpt lat="46.99863" lon="6.90809"><ele>649.2</ele><time>2017-05-17T16:45:33Z</time></trkpt>
<trkpt lat="46.99863" lon="6.90808"><ele>648.8</ele><time>2017-05-17T16:45:34Z</time></trkpt>
<trkpt lat="46.99863" lon="6.90807"><ele>647.8</ele><time>2017-05-17T16:45:38Z</time></trkpt>
<trkpt lat="46.99863" lon="6.90807"><ele>647.2</ele><time>2017-05-17T16:45:41Z</time></trkpt>
<trkpt lat="46.99863" lon="6.90804"><ele>649</ele><time>2017-05-17T16:45:58Z</time></trkpt>
<trkpt lat="46.99859" lon="6.908"><ele>649.4</ele><time>2017-05-17T16:46:05Z</time></trkpt>
<trkpt lat="46.99863" lon="6.90797"><ele>650.8</ele><time>2017-05-17T16:46:22Z</time></trkpt>
<trkpt lat="46.99868" lon="6.90808"><ele>651.6</ele><time>2017-05-17T16:46:34Z</time></trkpt>
<trkpt lat="46.99874" lon="6.90828"><ele>651.4</ele><time>2017-05-17T16:46:39Z</time></trkpt>
<trkpt lat="46.99882" lon="6.90856"><ele>651.4</ele><time>2017-05-17T16:46:45Z</time></trkpt>
<trkpt lat="46.99887" lon="6.90882"><ele>652</ele><time>2017-05-17T16:46:50Z</time></trkpt>
<trkpt lat="46.99893" lon="6.90909"><ele>652.8</ele><time>2017-05-17T16:46:55Z</time></trkpt>
<trkpt lat="46.99899" lon="6.90937"><ele>653</ele><time>2017-05-17T16:47:00Z</time></trkpt>
<trkpt lat="46.99902" lon="6.90949"><ele>653.4</ele><time>2017-05-17T16:47:02Z</time></trkpt>
<trkpt lat="46.99904" lon="6.9096"><ele>653.6</ele><time>2017-05-17T16:47:04Z</time></trkpt>
<trkpt lat="46.9991" lon="6.90985"><ele>654.4</ele><time>2017-05-17T16:47:09Z</time></trkpt>
<trkpt lat="46.99916" lon="6.91012"><ele>654.8</ele><time>2017-05-17T16:47:14Z</time></trkpt>
<trkpt lat="46.99921" lon="6.91033"><ele>655</ele><time>2017-05-17T16:47:18Z</time></trkpt>
<trkpt lat="46.9993" lon="6.91069"><ele>655.2</ele><time>2017-05-17T16:47:26Z</time></trkpt>
<trkpt lat="46.99933" lon="6.91097"><ele>655</ele><time>2017-05-17T16:47:34Z</time></trkpt>
<trkpt lat="46.99934" lon="6.91103"><ele>654.8</ele><time>2017-05-17T16:47:36Z</time></trkpt>
<trkpt lat="46.99937" lon="6.91095"><ele>655.4</ele><time>2017-05-17T16:47:41Z</time></trkpt>
<trkpt lat="46.99935" lon="6.91091"><ele>655.6</ele><time>2017-05-17T16:47:42Z</time></trkpt>
<trkpt lat="46.99929" lon="6.91068"><ele>655</ele><time>2017-05-17T16:47:47Z</time></trkpt>
<trkpt lat="46.99922" lon="6.91039"><ele>654.8</ele><time>2017-05-17T16:47:52Z</time></trkpt>
<trkpt lat="46.99915" lon="6.91014"><ele>654</ele><time>2017-05-17T16:47:56Z</time></trkpt>
<trkpt lat="46.99908" lon="6.90989"><ele>654.2</ele><time>2017-05-17T16:48:00Z</time></trkpt>
<trkpt lat="46.99902" lon="6.90964"><ele>654.2</ele><time>2017-05-17T16:48:04Z</time></trkpt>
<trkpt lat="46.99896" lon="6.90938"><ele>654.2</ele><time>2017-05-17T16:48:08Z</time></trkpt>
<trkpt lat="46.9989" lon="6.90913"><ele>654.4</ele><time>2017-05-17T16:48:12Z</time></trkpt>
<trkpt lat="46.99883" lon="6.90884"><ele>654.4</ele><time>2017-05-17T16:48:17Z</time></trkpt>
<trkpt lat="46.99876" lon="6.90858"><ele>654.4</ele><time>2017-05-17T16:48:21Z</time></trkpt>
<trkpt lat="46.99873" lon="6.90845"><ele>654.4</ele><time>2017-05-17T16:48:23Z</time></trkpt>
<trkpt lat="46.99871" lon="6.90839"><ele>654.4</ele><time>2017-05-17T16:48:24Z</time></trkpt>
<trkpt lat="46.99863" lon="6.90812"><ele>654.2</ele><time>2017-05-17T16:48:28Z</time></trkpt>
<trkpt lat="46.99857" lon="6.90784"><ele>654.4</ele><time>2017-05-17T16:48:32Z</time></trkpt>
<trkpt lat="46.99854" lon="6.90771"><ele>654</ele><time>2017-05-17T16:48:34Z</time></trkpt>
<trkpt lat="46.99847" lon="6.9074"><ele>653.6</ele><time>2017-05-17T16:48:38Z</time></trkpt>
<trkpt lat="46.99846" lon="6.90732"><ele>653.2</ele><time>2017-05-17T16:48:39Z</time></trkpt>
<trkpt lat="46.99856" lon="6.90712"><ele>652</ele><time>2017-05-17T16:48:43Z</time></trkpt>
<trkpt lat="46.99862" lon="6.90712"><ele>651.8</ele><time>2017-05-17T16:48:46Z</time></trkpt>
<trkpt lat="46.99865" lon="6.90712"><ele>651.6</ele><time>2017-05-17T16:48:48Z</time></trkpt>
<trkpt lat="46.99869" lon="6.90711"><ele>651.6</ele><time>2017-05-17T16:48:51Z</time></trkpt>
<trkpt lat="46.99877" lon="6.90708"><ele>650.6</ele><time>2017-05-17T16:48:56Z</time></trkpt>
<trkpt lat="46.99896" lon="6.90705"><ele>650.4</ele><time>2017-05-17T16:49:07Z</time></trkpt>
<trkpt lat="46.99899" lon="6.90705"><ele>651</ele><time>2017-05-17T16:49:09Z</time></trkpt>
<trkpt lat="46.99913" lon="6.90708"><ele>654</ele><time>2017-05-17T16:49:17Z</time></trkpt>
<trkpt lat="46.9993" lon="6.90719"><ele>657.2</ele><time>2017-05-17T16:49:28Z</time></trkpt>
<trkpt lat="46.99936" lon="6.90722"><ele>658</ele><time>2017-05-17T16:49:32Z</time></trkpt>
<trkpt lat="46.99941" lon="6.90724"><ele>658.8</ele><time>2017-05-17T16:49:35Z</time></trkpt>
<trkpt lat="46.99954" lon="6.90724"><ele>659.8</ele><time>2017-05-17T16:49:43Z</time></trkpt>
<trkpt lat="46.9996" lon="6.90722"><ele>659.6</ele><time>2017-05-17T16:49:46Z</time></trkpt>
<trkpt lat="46.99964" lon="6.90722"><ele>660</ele><time>2017-05-17T16:49:48Z</time></trkpt>
<trkpt lat="46.99983" lon="6.90717"><ele>663.4</ele><time>2017-05-17T16:49:59Z</time></trkpt>
<trkpt lat="46.99985" lon="6.90717"><ele>663.4</ele><time>2017-05-17T16:50:00Z</time></trkpt>
<trkpt lat="47" lon="6.90711"><ele>664</ele><time>2017-05-17T16:50:08Z</time></trkpt>
<trkpt lat="47.00019" lon="6.90709"><ele>665.4</ele><time>2017-05-17T16:50:17Z</time></trkpt>
<trkpt lat="47.00037" lon="6.90709"><ele>665.6</ele><time>2017-05-17T16:50:26Z</time></trkpt>
<trkpt lat="47.00062" lon="6.90695"><ele>667.2</ele><time>2017-05-17T16:50:39Z</time></trkpt>
<trkpt lat="47.00078" lon="6.9068"><ele>669.2</ele><time>2017-05-17T16:50:49Z</time></trkpt>
<trkpt lat="47.00095" lon="6.90668"><ele>670.4</ele><time>2017-05-17T16:50:58Z</time></trkpt>
<trkpt lat="47.00105" lon="6.90666"><ele>670.6</ele><time>2017-05-17T16:51:03Z</time></trkpt>
<trkpt lat="47.00123" lon="6.9067"><ele>673</ele><time>2017-05-17T16:51:12Z</time></trkpt>
<trkpt lat="47.00139" lon="6.90683"><ele>677.6</ele><time>2017-05-17T16:51:21Z</time></trkpt>
<trkpt lat="47.00149" lon="6.90695"><ele>679.4</ele><time>2017-05-17T16:51:28Z</time></trkpt>
<trkpt lat="47.00171" lon="6.9072"><ele>682.8</ele><time>2017-05-17T16:51:42Z</time></trkpt>
<trkpt lat="47.00181" lon="6.90732"><ele>685.8</ele><time>2017-05-17T16:51:49Z</time></trkpt>
<trkpt lat="47.00195" lon="6.90749"><ele>688.2</ele><time>2017-05-17T16:51:59Z</time></trkpt>
<trkpt lat="47.00201" lon="6.90775"><ele>689.8</ele><time>2017-05-17T16:52:08Z</time></trkpt>
<trkpt lat="47.00206" lon="6.90789"><ele>692</ele><time>2017-05-17T16:52:14Z</time></trkpt>
<trkpt lat="47.00211" lon="6.90809"><ele>694</ele><time>2017-05-17T16:52:22Z</time></trkpt>
<trkpt lat="47.00224" lon="6.90842"><ele>693.8</ele><time>2017-05-17T16:52:34Z</time></trkpt>
<trkpt lat="47.00229" lon="6.90853"><ele>693</ele><time>2017-05-17T16:52:38Z</time></trkpt>
<trkpt lat="47.00235" lon="6.90876"><ele>690.2</ele><time>2017-05-17T16:52:46Z</time></trkpt>
<trkpt lat="47.00237" lon="6.90881"><ele>690</ele><time>2017-05-17T16:52:48Z</time></trkpt>
<trkpt lat="47.00241" lon="6.90894"><ele>689.4</ele><time>2017-05-17T16:52:55Z</time></trkpt>
<trkpt lat="47.00244" lon="6.90896"><ele>688.2</ele><time>2017-05-17T16:53:00Z</time></trkpt>
<trkpt lat="47.00256" lon="6.90914"><ele>687.4</ele><time>2017-05-17T16:53:12Z</time></trkpt>
<trkpt lat="47.00264" lon="6.90939"><ele>688.2</ele><time>2017-05-17T16:53:19Z</time></trkpt>
<trkpt lat="47.00268" lon="6.9095"><ele>688.4</ele><time>2017-05-17T16:53:21Z</time></trkpt>
<trkpt lat="47.00275" lon="6.9097"><ele>687.6</ele><time>2017-05-17T16:53:25Z</time></trkpt>
<trkpt lat="47.00279" lon="6.90985"><ele>687.6</ele><time>2017-05-17T16:53:28Z</time></trkpt>
<trkpt lat="47.00287" lon="6.91012"><ele>687.2</ele><time>2017-05-17T16:53:33Z</time></trkpt>
<trkpt lat="47.00295" lon="6.91038"><ele>687.8</ele><time>2017-05-17T16:53:38Z</time></trkpt>
<trkpt lat="47.00303" lon="6.91062"><ele>687.8</ele><time>2017-05-17T16:53:43Z</time></trkpt>
<trkpt lat="47.00313" lon="6.9109"><ele>688.6</ele><time>2017-05-17T16:53:48Z</time></trkpt>
<trkpt lat="47.00322" lon="6.91119"><ele>688</ele><time>2017-05-17T16:53:53Z</time></trkpt>
<trkpt lat="47.0033" lon="6.91144"><ele>687.2</ele><time>2017-05-17T16:53:57Z</time></trkpt>
<trkpt lat="47.00338" lon="6.91172"><ele>686.8</ele><time>2017-05-17T16:54:02Z</time></trkpt>
<trkpt lat="47.00346" lon="6.91198"><ele>685</ele><time>2017-05-17T16:54:07Z</time></trkpt>
<trkpt lat="47.0035" lon="6.91225"><ele>683.6</ele><time>2017-05-17T16:54:12Z</time></trkpt>
<trkpt lat="47.00353" lon="6.91243"><ele>682.8</ele><time>2017-05-17T16:54:15Z</time></trkpt>
<trkpt lat="47.00359" lon="6.91272"><ele>683</ele><time>2017-05-17T16:54:19Z</time></trkpt>
<trkpt lat="47.00361" lon="6.91286"><ele>683.4</ele><time>2017-05-17T16:54:21Z</time></trkpt>
<trkpt lat="47.00364" lon="6.91306"><ele>683.6</ele><time>2017-05-17T16:54:24Z</time></trkpt>
<trkpt lat="47.00367" lon="6.91332"><ele>683.4</ele><time>2017-05-17T16:54:28Z</time></trkpt>
<trkpt lat="47.00371" lon="6.91352"><ele>683.2</ele><time>2017-05-17T16:54:31Z</time></trkpt>
<trkpt lat="47.00375" lon="6.91379"><ele>683.4</ele><time>2017-05-17T16:54:35Z</time></trkpt>
<trkpt lat="47.00379" lon="6.91411"><ele>684.6</ele><time>2017-05-17T16:54:40Z</time></trkpt>
<trkpt lat="47.00381" lon="6.91439"><ele>685.4</ele><time>2017-05-17T16:54:44Z</time></trkpt>
<trkpt lat="47.00383" lon="6.91455"><ele>685.6</ele><time>2017-05-17T16:54:46Z</time></trkpt>
<trkpt lat="47.00387" lon="6.91485"><ele>685.6</ele><time>2017-05-17T16:54:50Z</time></trkpt>
<trkpt lat="47.00388" lon="6.91515"><ele>686</ele><time>2017-05-17T16:54:54Z</time></trkpt>
<trkpt lat="47.0039" lon="6.91537"><ele>686.8</ele><time>2017-05-17T16:54:57Z</time></trkpt>
<trkpt lat="47.00392" lon="6.9157"><ele>687.4</ele><time>2017-05-17T16:55:01Z</time></trkpt>
<trkpt lat="47.00394" lon="6.91602"><ele>687.8</ele><time>2017-05-17T16:55:05Z</time></trkpt>
<trkpt lat="47.00396" lon="6.91632"><ele>687</ele><time>2017-05-17T16:55:09Z</time></trkpt>
<trkpt lat="47.00396" lon="6.91649"><ele>686.6</ele><time>2017-05-17T16:55:12Z</time></trkpt>
<trkpt lat="47.00397" lon="6.91667"><ele>687.2</ele><time>2017-05-17T16:55:15Z</time></trkpt>
<trkpt lat="47.00399" lon="6.91697"><ele>688.6</ele><time>2017-05-17T16:55:20Z</time></trkpt>
<trkpt lat="47.00401" lon="6.91715"><ele>689.4</ele><time>2017-05-17T16:55:23Z</time></trkpt>
<trkpt lat="47.00411" lon="6.91749"><ele>688.8</ele><time>2017-05-17T16:55:29Z</time></trkpt>
<trkpt lat="47.00419" lon="6.91778"><ele>688.8</ele><time>2017-05-17T16:55:34Z</time></trkpt>
<trkpt lat="47.00426" lon="6.91802"><ele>688</ele><time>2017-05-17T16:55:39Z</time></trkpt>
<trkpt lat="47.00431" lon="6.91816"><ele>687.6</ele><time>2017-05-17T16:55:42Z</time></trkpt>
<trkpt lat="47.00435" lon="6.91827"><ele>687</ele><time>2017-05-17T16:55:45Z</time></trkpt>
<trkpt lat="47.00437" lon="6.91837"><ele>687.4</ele><time>2017-05-17T16:55:47Z</time></trkpt>
<trkpt lat="47.00443" lon="6.91856"><ele>687.2</ele><time>2017-05-17T16:55:51Z</time></trkpt>
<trkpt lat="47.00451" lon="6.91879"><ele>687.8</ele><time>2017-05-17T16:55:56Z</time></trkpt>
<trkpt lat="47.00455" lon="6.91889"><ele>688.2</ele><time>2017-05-17T16:55:58Z</time></trkpt>
<trkpt lat="47.00465" lon="6.91914"><ele>688</ele><time>2017-05-17T16:56:05Z</time></trkpt>
<trkpt lat="47.00471" lon="6.91933"><ele>689.2</ele><time>2017-05-17T16:56:12Z</time></trkpt>
<trkpt lat="47.00475" lon="6.91954"><ele>691.6</ele><time>2017-05-17T16:56:19Z</time></trkpt>
<trkpt lat="47.00475" lon="6.9196"><ele>692.2</ele><time>2017-05-17T16:56:21Z</time></trkpt>
<trkpt lat="47.00482" lon="6.91988"><ele>694.2</ele><time>2017-05-17T16:56:29Z</time></trkpt>
<trkpt lat="47.0049" lon="6.92012"><ele>694.6</ele><time>2017-05-17T16:56:34Z</time></trkpt>
<trkpt lat="47.00501" lon="6.92034"><ele>694.6</ele><time>2017-05-17T16:56:38Z</time></trkpt>
<trkpt lat="47.00513" lon="6.92062"><ele>694.6</ele><time>2017-05-17T16:56:42Z</time></trkpt>
<trkpt lat="47.00527" lon="6.92089"><ele>695.2</ele><time>2017-05-17T16:56:46Z</time></trkpt>
<trkpt lat="47.00541" lon="6.92113"><ele>695.6</ele><time>2017-05-17T16:56:50Z</time></trkpt>
<trkpt lat="47.00555" lon="6.92136"><ele>697.2</ele><time>2017-05-17T16:56:54Z</time></trkpt>
<trkpt lat="47.0057" lon="6.92159"><ele>698.4</ele><time>2017-05-17T16:56:58Z</time></trkpt>
<trkpt lat="47.00584" lon="6.92178"><ele>699.8</ele><time>2017-05-17T16:57:02Z</time></trkpt>
<trkpt lat="47.00597" lon="6.92199"><ele>700.6</ele><time>2017-05-17T16:57:06Z</time></trkpt>
<trkpt lat="47.00611" lon="6.92231"><ele>702</ele><time>2017-05-17T16:57:14Z</time></trkpt>
<trkpt lat="47.00616" lon="6.92237"><ele>701.8</ele><time>2017-05-17T16:57:17Z</time></trkpt>
<trkpt lat="47.00622" lon="6.92249"><ele>702.6</ele><time>2017-05-17T16:57:21Z</time></trkpt>
<trkpt lat="47.00623" lon="6.92253"><ele>702.4</ele><time>2017-05-17T16:57:22Z</time></trkpt>
<trkpt lat="47.00624" lon="6.92273"><ele>701.8</ele><time>2017-05-17T16:57:27Z</time></trkpt>
<trkpt lat="47.00625" lon="6.92283"><ele>701.8</ele><time>2017-05-17T16:57:30Z</time></trkpt>
<trkpt lat="47.00628" lon="6.92311"><ele>702.2</ele><time>2017-05-17T16:57:37Z</time></trkpt>
<trkpt lat="47.00633" lon="6.9234"><ele>702.4</ele><time>2017-05-17T16:57:44Z</time></trkpt>
<trkpt lat="47.00635" lon="6.92351"><ele>702.2</ele><time>2017-05-17T16:57:47Z</time></trkpt>
<trkpt lat="47.0065" lon="6.92372"><ele>702</ele><time>2017-05-17T16:57:54Z</time></trkpt>
<trkpt lat="47.00665" lon="6.9239"><ele>703</ele><time>2017-05-17T16:58:01Z</time></trkpt>
<trkpt lat="47.00674" lon="6.92413"><ele>702.2</ele><time>2017-05-17T16:58:08Z</time></trkpt>
<trkpt lat="47.00679" lon="6.9244"><ele>701.4</ele><time>2017-05-17T16:58:16Z</time></trkpt>
<trkpt lat="47.00684" lon="6.92479"><ele>703.6</ele><time>2017-05-17T16:58:27Z</time></trkpt>
<trkpt lat="47.00685" lon="6.92507"><ele>706.6</ele><time>2017-05-17T16:58:35Z</time></trkpt>
<trkpt lat="47.00689" lon="6.92534"><ele>709.6</ele><time>2017-05-17T16:58:43Z</time></trkpt>
<trkpt lat="47.00685" lon="6.92561"><ele>713.8</ele><time>2017-05-17T16:58:51Z</time></trkpt>
<trkpt lat="47.00675" lon="6.92585"><ele>717.6</ele><time>2017-05-17T16:59:00Z</time></trkpt>
<trkpt lat="47.00668" lon="6.92609"><ele>720.2</ele><time>2017-05-17T16:59:08Z</time></trkpt>
<trkpt lat="47.00666" lon="6.92638"><ele>721.8</ele><time>2017-05-17T16:59:17Z</time></trkpt>
<trkpt lat="47.00662" lon="6.92663"><ele>723.6</ele><time>2017-05-17T16:59:25Z</time></trkpt>
<trkpt lat="47.00665" lon="6.92679"><ele>723.4</ele><time>2017-05-17T16:59:30Z</time></trkpt>
<trkpt lat="47.00667" lon="6.92687"><ele>723.2</ele><time>2017-05-17T16:59:34Z</time></trkpt>
<trkpt lat="47.00667" lon="6.92688"><ele>723</ele><time>2017-05-17T16:59:36Z</time></trkpt>
<trkpt lat="47.00668" lon="6.92689"><ele>723</ele><time>2017-05-17T16:59:40Z</time></trkpt>
<trkpt lat="47.00668" lon="6.92692"><ele>723.2</ele><time>2017-05-17T16:59:50Z</time></trkpt>
<trkpt lat="47.0067" lon="6.92691"><ele>723</ele><time>2017-05-17T16:59:59Z</time></trkpt>
<trkpt lat="47.0067" lon="6.9269"><ele>723.2</ele><time>2017-05-17T17:00:00Z</time></trkpt>
<trkpt lat="47.00671" lon="6.9269"><ele>723.2</ele><time>2017-05-17T17:00:01Z</time></trkpt>
<trkpt lat="47.00671" lon="6.9269"><ele>723.2</ele><time>2017-05-17T17:00:02Z</time></trkpt>
<trkpt lat="47.00672" lon="6.92686"><ele>722.4</ele><time>2017-05-17T17:00:09Z</time></trkpt>
<trkpt lat="47.00669" lon="6.92686"><ele>722.2</ele><time>2017-05-17T17:00:28Z</time></trkpt>
<trkpt lat="47.00667" lon="6.92685"><ele>722</ele><time>2017-05-17T17:00:39Z</time></trkpt>
<trkpt lat="47.00667" lon="6.92685"><ele>722.4</ele><time>2017-05-17T17:00:43Z</time></trkpt>
<trkpt lat="47.00663" lon="6.92696"><ele>723.2</ele><time>2017-05-17T17:01:45Z</time></trkpt>
<trkpt lat="47.00671" lon="6.92723"><ele>722</ele><time>2017-05-17T17:01:55Z</time></trkpt>
<trkpt lat="47.00678" lon="6.92748"><ele>719.6</ele><time>2017-05-17T17:02:01Z</time></trkpt>
<trkpt lat="47.00693" lon="6.9277"><ele>717.2</ele><time>2017-05-17T17:02:07Z</time></trkpt>
<trkpt lat="47.00705" lon="6.92786"><ele>716.4</ele><time>2017-05-17T17:02:11Z</time></trkpt>
<trkpt lat="47.00721" lon="6.92804"><ele>715.2</ele><time>2017-05-17T17:02:17Z</time></trkpt>
<trkpt lat="47.00738" lon="6.92823"><ele>715</ele><time>2017-05-17T17:02:23Z</time></trkpt>
<trkpt lat="47.00745" lon="6.92847"><ele>713.2</ele><time>2017-05-17T17:02:28Z</time></trkpt>
<trkpt lat="47.00748" lon="6.92861"><ele>713</ele><time>2017-05-17T17:02:31Z</time></trkpt>
<trkpt lat="47.00754" lon="6.92888"><ele>711.4</ele><time>2017-05-17T17:02:36Z</time></trkpt>
<trkpt lat="47.00762" lon="6.92912"><ele>707.6</ele><time>2017-05-17T17:02:41Z</time></trkpt>
<trkpt lat="47.0077" lon="6.92939"><ele>705.4</ele><time>2017-05-17T17:02:46Z</time></trkpt>
<trkpt lat="47.00774" lon="6.92965"><ele>705.8</ele><time>2017-05-17T17:02:52Z</time></trkpt>
<trkpt lat="47.00777" lon="6.92968"><ele>706.8</ele><time>2017-05-17T17:02:55Z</time></trkpt>
<trkpt lat="47.00778" lon="6.92969"><ele>706.8</ele><time>2017-05-17T17:02:57Z</time></trkpt>
<trkpt lat="47.00786" lon="6.92972"><ele>712.6</ele><time>2017-05-17T17:03:11Z</time></trkpt>
<trkpt lat="47.00787" lon="6.92972"><ele>712.8</ele><time>2017-05-17T17:03:13Z</time></trkpt>
<trkpt lat="47.00787" lon="6.92972"><ele>712.8</ele><time>2017-05-17T17:03:14Z</time></trkpt>
<trkpt lat="47.00787" lon="6.92971"><ele>712.4</ele><time>2017-05-17T17:03:18Z</time></trkpt>
<trkpt lat="47.00791" lon="6.92972"><ele>713</ele><time>2017-05-17T17:03:24Z</time></trkpt>
<trkpt lat="47.0079" lon="6.92972"><ele>712.4</ele><time>2017-05-17T17:03:26Z</time></trkpt>
<trkpt lat="47.00794" lon="6.92983"><ele>715.4</ele><time>2017-05-17T17:03:35Z</time></trkpt>
<trkpt lat="47.00804" lon="6.92999"><ele>716.8</ele><time>2017-05-17T17:03:40Z</time></trkpt>
<trkpt lat="47.00806" lon="6.93002"><ele>717.4</ele><time>2017-05-17T17:03:41Z</time></trkpt>
<trkpt lat="47.00811" lon="6.93038"><ele>718.4</ele><time>2017-05-17T17:03:48Z</time></trkpt>
<trkpt lat="47.00812" lon="6.93047"><ele>718.4</ele><time>2017-05-17T17:03:50Z</time></trkpt>
<trkpt lat="47.00813" lon="6.93069"><ele>719</ele><time>2017-05-17T17:03:55Z</time></trkpt>
<trkpt lat="47.00815" lon="6.93078"><ele>720</ele><time>2017-05-17T17:03:57Z</time></trkpt>
<trkpt lat="47.00823" lon="6.93105"><ele>721.2</ele><time>2017-05-17T17:04:03Z</time></trkpt>
<trkpt lat="47.00826" lon="6.93113"><ele>721.4</ele><time>2017-05-17T17:04:05Z</time></trkpt>
<trkpt lat="47.00829" lon="6.93126"><ele>721.2</ele><time>2017-05-17T17:04:08Z</time></trkpt>
<trkpt lat="47.00834" lon="6.93154"><ele>720.8</ele><time>2017-05-17T17:04:14Z</time></trkpt>
<trkpt lat="47.00836" lon="6.93182"><ele>720.8</ele><time>2017-05-17T17:04:21Z</time></trkpt>
<trkpt lat="47.00836" lon="6.9319"><ele>721</ele><time>2017-05-17T17:04:23Z</time></trkpt>
<trkpt lat="47.00834" lon="6.93218"><ele>722.4</ele><time>2017-05-17T17:04:30Z</time></trkpt>
<trkpt lat="47.00838" lon="6.93234"><ele>724</ele><time>2017-05-17T17:04:34Z</time></trkpt>
<trkpt lat="47.00844" lon="6.9326"><ele>725</ele><time>2017-05-17T17:04:40Z</time></trkpt>
<trkpt lat="47.00845" lon="6.93283"><ele>727.4</ele><time>2017-05-17T17:04:46Z</time></trkpt>
<trkpt lat="47.00845" lon="6.93309"><ele>728</ele><time>2017-05-17T17:04:52Z</time></trkpt>
<trkpt lat="47.0085" lon="6.93337"><ele>729.6</ele><time>2017-05-17T17:04:58Z</time></trkpt>
<trkpt lat="47.00856" lon="6.93363"><ele>730</ele><time>2017-05-17T17:05:04Z</time></trkpt>
<trkpt lat="47.00864" lon="6.93392"><ele>730.8</ele><time>2017-05-17T17:05:10Z</time></trkpt>
<trkpt lat="47.00873" lon="6.93434"><ele>729.8</ele><time>2017-05-17T17:05:17Z</time></trkpt>
<trkpt lat="47.00876" lon="6.93466"><ele>728.6</ele><time>2017-05-17T17:05:22Z</time></trkpt>
<trkpt lat="47.0088" lon="6.93492"><ele>727.4</ele><time>2017-05-17T17:05:26Z</time></trkpt>
<trkpt lat="47.00888" lon="6.93516"><ele>726.8</ele><time>2017-05-17T17:05:30Z</time></trkpt>
<trkpt lat="47.00899" lon="6.93543"><ele>726</ele><time>2017-05-17T17:05:35Z</time></trkpt>
<trkpt lat="47.0091" lon="6.9357"><ele>725</ele><time>2017-05-17T17:05:40Z</time></trkpt>
<trkpt lat="47.00918" lon="6.93581"><ele>724.4</ele><time>2017-05-17T17:05:43Z</time></trkpt>
<trkpt lat="47.00932" lon="6.936"><ele>726.4</ele><time>2017-05-17T17:05:49Z</time></trkpt>
<trkpt lat="47.00941" lon="6.93614"><ele>728.2</ele><time>2017-05-17T17:05:54Z</time></trkpt>
<trkpt lat="47.00954" lon="6.93633"><ele>730.4</ele><time>2017-05-17T17:06:01Z</time></trkpt>
<trkpt lat="47.00967" lon="6.9365"><ele>734.2</ele><time>2017-05-17T17:06:09Z</time></trkpt>
<trkpt lat="47.00978" lon="6.93677"><ele>734.6</ele><time>2017-05-17T17:06:17Z</time></trkpt>
<trkpt lat="47.00989" lon="6.93699"><ele>735.6</ele><time>2017-05-17T17:06:24Z</time></trkpt>
<trkpt lat="47.00999" lon="6.93716"><ele>737</ele><time>2017-05-17T17:06:31Z</time></trkpt>
<trkpt lat="47.01012" lon="6.93737"><ele>738</ele><time>2017-05-17T17:06:39Z</time></trkpt>
<trkpt lat="47.01022" lon="6.93758"><ele>738.2</ele><time>2017-05-17T17:06:46Z</time></trkpt>
<trkpt lat="47.01035" lon="6.93779"><ele>739.2</ele><time>2017-05-17T17:06:55Z</time></trkpt>
<trkpt lat="47.01045" lon="6.93804"><ele>740.2</ele><time>2017-05-17T17:07:03Z</time></trkpt>
<trkpt lat="47.01053" lon="6.93829"><ele>741.2</ele><time>2017-05-17T17:07:11Z</time></trkpt>
<trkpt lat="47.01064" lon="6.93854"><ele>745</ele><time>2017-05-17T17:07:20Z</time></trkpt>
<trkpt lat="47.01079" lon="6.93871"><ele>748.8</ele><time>2017-05-17T17:07:28Z</time></trkpt>
<trkpt lat="47.01099" lon="6.93882"><ele>753.2</ele><time>2017-05-17T17:07:39Z</time></trkpt>
<trkpt lat="47.01111" lon="6.93904"><ele>758.8</ele><time>2017-05-17T17:07:50Z</time></trkpt>
<trkpt lat="47.01121" lon="6.93928"><ele>763</ele><time>2017-05-17T17:08:01Z</time></trkpt>
<trkpt lat="47.0113" lon="6.93953"><ele>766.2</ele><time>2017-05-17T17:08:09Z</time></trkpt>
<trkpt lat="47.0114" lon="6.93977"><ele>767.4</ele><time>2017-05-17T17:08:16Z</time></trkpt>
<trkpt lat="47.0115" lon="6.94003"><ele>768.8</ele><time>2017-05-17T17:08:24Z</time></trkpt>
<trkpt lat="47.01158" lon="6.94023"><ele>769.2</ele><time>2017-05-17T17:08:31Z</time></trkpt>
<trkpt lat="47.01167" lon="6.94049"><ele>768.8</ele><time>2017-05-17T17:08:39Z</time></trkpt>
<trkpt lat="47.01178" lon="6.94072"><ele>768.6</ele><time>2017-05-17T17:08:48Z</time></trkpt>
<trkpt lat="47.01197" lon="6.94103"><ele>767.2</ele><time>2017-05-17T17:09:00Z</time></trkpt>
<trkpt lat="47.01209" lon="6.94124"><ele>767.4</ele><time>2017-05-17T17:09:10Z</time></trkpt>
<trkpt lat="47.01222" lon="6.94144"><ele>769.4</ele><time>2017-05-17T17:09:18Z</time></trkpt>
<trkpt lat="47.01233" lon="6.94164"><ele>770.2</ele><time>2017-05-17T17:09:26Z</time></trkpt>
<trkpt lat="47.01243" lon="6.94188"><ele>771.8</ele><time>2017-05-17T17:09:35Z</time></trkpt>
<trkpt lat="47.01244" lon="6.94192"><ele>772.6</ele><time>2017-05-17T17:09:36Z</time></trkpt>
<trkpt lat="47.01255" lon="6.94223"><ele>774.4</ele><time>2017-05-17T17:09:44Z</time></trkpt>
<trkpt lat="47.01267" lon="6.94245"><ele>775.8</ele><time>2017-05-17T17:09:51Z</time></trkpt>
<trkpt lat="47.01282" lon="6.94261"><ele>776.2</ele><time>2017-05-17T17:09:58Z</time></trkpt>
<trkpt lat="47.01298" lon="6.94275"><ele>776.4</ele><time>2017-05-17T17:10:06Z</time></trkpt>
<trkpt lat="47.01315" lon="6.94289"><ele>776.6</ele><time>2017-05-17T17:10:15Z</time></trkpt>
<trkpt lat="47.0133" lon="6.94307"><ele>778.6</ele><time>2017-05-17T17:10:23Z</time></trkpt>
<trkpt lat="47.01342" lon="6.94327"><ele>779.4</ele><time>2017-05-17T17:10:31Z</time></trkpt>
<trkpt lat="47.01362" lon="6.94353"><ele>778.6</ele><time>2017-05-17T17:10:42Z</time></trkpt>
<trkpt lat="47.01377" lon="6.94373"><ele>777.4</ele><time>2017-05-17T17:10:50Z</time></trkpt>
<trkpt lat="47.01389" lon="6.94396"><ele>776.4</ele><time>2017-05-17T17:10:59Z</time></trkpt>
<trkpt lat="47.01405" lon="6.94414"><ele>776.4</ele><time>2017-05-17T17:11:07Z</time></trkpt>
<trkpt lat="47.01418" lon="6.94425"><ele>776.8</ele><time>2017-05-17T17:11:15Z</time></trkpt>
<trkpt lat="47.01431" lon="6.94437"><ele>779.4</ele><time>2017-05-17T17:11:25Z</time></trkpt>
<trkpt lat="47.01437" lon="6.94443"><ele>780.4</ele><time>2017-05-17T17:11:29Z</time></trkpt>
<trkpt lat="47.01446" lon="6.94455"><ele>781.2</ele><time>2017-05-17T17:11:36Z</time></trkpt>
<trkpt lat="47.01455" lon="6.94474"><ele>783.2</ele><time>2017-05-17T17:11:46Z</time></trkpt>
<trkpt lat="47.01457" lon="6.94482"><ele>784</ele><time>2017-05-17T17:11:50Z</time></trkpt>
<trkpt lat="47.01468" lon="6.94507"><ele>786.4</ele><time>2017-05-17T17:12:02Z</time></trkpt>
<trkpt lat="47.01478" lon="6.94528"><ele>788.8</ele><time>2017-05-17T17:12:12Z</time></trkpt>
<trkpt lat="47.01488" lon="6.94546"><ele>789.8</ele><time>2017-05-17T17:12:20Z</time></trkpt>
<trkpt lat="47.01492" lon="6.94556"><ele>791.4</ele><time>2017-05-17T17:12:24Z</time></trkpt>
<trkpt lat="47.01501" lon="6.94579"><ele>793.6</ele><time>2017-05-17T17:12:35Z</time></trkpt>
<trkpt lat="47.01512" lon="6.94594"><ele>796.6</ele><time>2017-05-17T17:12:46Z</time></trkpt>
<trkpt lat="47.01521" lon="6.94606"><ele>798.6</ele><time>2017-05-17T17:12:53Z</time></trkpt>
<trkpt lat="47.01534" lon="6.94632"><ele>802</ele><time>2017-05-17T17:13:10Z</time></trkpt>
<trkpt lat="47.01542" lon="6.94645"><ele>803.6</ele><time>2017-05-17T17:13:19Z</time></trkpt>
<trkpt lat="47.01548" lon="6.9465"><ele>806.8</ele><time>2017-05-17T17:13:25Z</time></trkpt>
<trkpt lat="47.01559" lon="6.94672"><ele>811.4</ele><time>2017-05-17T17:13:37Z</time></trkpt>
<trkpt lat="47.0157" lon="6.94695"><ele>814.2</ele><time>2017-05-17T17:13:51Z</time></trkpt>
<trkpt lat="47.01582" lon="6.94714"><ele>817.6</ele><time>2017-05-17T17:14:01Z</time></trkpt>
<trkpt lat="47.0159" lon="6.94741"><ele>819</ele><time>2017-05-17T17:14:11Z</time></trkpt>
<trkpt lat="47.01591" lon="6.94743"><ele>819.2</ele><time>2017-05-17T17:14:12Z</time></trkpt>
<trkpt lat="47.01594" lon="6.94755"><ele>819.8</ele><time>2017-05-17T17:14:17Z</time></trkpt>
<trkpt lat="47.01598" lon="6.9477"><ele>820.8</ele><time>2017-05-17T17:14:26Z</time></trkpt>
<trkpt lat="47.01616" lon="6.94782"><ele>822.2</ele><time>2017-05-17T17:14:37Z</time></trkpt>
<trkpt lat="47.01628" lon="6.94801"><ele>824.2</ele><time>2017-05-17T17:14:48Z</time></trkpt>
<trkpt lat="47.01636" lon="6.94817"><ele>825.4</ele><time>2017-05-17T17:14:57Z</time></trkpt>
<trkpt lat="47.01641" lon="6.94826"><ele>826.4</ele><time>2017-05-17T17:15:02Z</time></trkpt>
<trkpt lat="47.01646" lon="6.94835"><ele>827.2</ele><time>2017-05-17T17:15:07Z</time></trkpt>
<trkpt lat="47.01651" lon="6.94844"><ele>827.8</ele><time>2017-05-17T17:15:12Z</time></trkpt>
<trkpt lat="47.01668" lon="6.94869"><ele>830.2</ele><time>2017-05-17T17:15:27Z</time></trkpt>
<trkpt lat="47.0168" lon="6.94889"><ele>830.4</ele><time>2017-05-17T17:15:39Z</time></trkpt>
<trkpt lat="47.01681" lon="6.94894"><ele>830.2</ele><time>2017-05-17T17:15:41Z</time></trkpt>
<trkpt lat="47.01685" lon="6.949"><ele>830.2</ele><time>2017-05-17T17:15:45Z</time></trkpt>
<trkpt lat="47.01696" lon="6.94915"><ele>831.4</ele><time>2017-05-17T17:15:54Z</time></trkpt>
<trkpt lat="47.01709" lon="6.94932"><ele>832.2</ele><time>2017-05-17T17:16:07Z</time></trkpt>
<trkpt lat="47.01715" lon="6.9494"><ele>832.4</ele><time>2017-05-17T17:16:12Z</time></trkpt>
<trkpt lat="47.01719" lon="6.9495"><ele>833</ele><time>2017-05-17T17:16:18Z</time></trkpt>
<trkpt lat="47.01723" lon="6.94957"><ele>833.8</ele><time>2017-05-17T17:16:22Z</time></trkpt>
<trkpt lat="47.01723" lon="6.94959"><ele>834</ele><time>2017-05-17T17:16:23Z</time></trkpt>
<trkpt lat="47.01728" lon="6.94967"><ele>835</ele><time>2017-05-17T17:16:28Z</time></trkpt>
<trkpt lat="47.01737" lon="6.9499"><ele>838</ele><time>2017-05-17T17:16:41Z</time></trkpt>
<trkpt lat="47.01748" lon="6.95012"><ele>840.2</ele><time>2017-05-17T17:16:54Z</time></trkpt>
<trkpt lat="47.01762" lon="6.9503"><ele>844.2</ele><time>2017-05-17T17:17:09Z</time></trkpt>
<trkpt lat="47.01775" lon="6.95049"><ele>847</ele><time>2017-05-17T17:17:21Z</time></trkpt>
<trkpt lat="47.01787" lon="6.95068"><ele>847.8</ele><time>2017-05-17T17:17:30Z</time></trkpt>
<trkpt lat="47.01789" lon="6.95071"><ele>848.4</ele><time>2017-05-17T17:17:32Z</time></trkpt>
<trkpt lat="47.01801" lon="6.95087"><ele>849.6</ele><time>2017-05-17T17:17:43Z</time></trkpt>
<trkpt lat="47.01806" lon="6.95097"><ele>851</ele><time>2017-05-17T17:17:49Z</time></trkpt>
<trkpt lat="47.01815" lon="6.95121"><ele>853</ele><time>2017-05-17T17:18:00Z</time></trkpt>
<trkpt lat="47.01815" lon="6.95122"><ele>853.4</ele><time>2017-05-17T17:18:01Z</time></trkpt>
<trkpt lat="47.01826" lon="6.95145"><ele>856.2</ele><time>2017-05-17T17:18:15Z</time></trkpt>
<trkpt lat="47.01826" lon="6.95147"><ele>856.4</ele><time>2017-05-17T17:18:16Z</time></trkpt>
<trkpt lat="47.01832" lon="6.95151"><ele>856.8</ele><time>2017-05-17T17:18:28Z</time></trkpt>
<trkpt lat="47.01832" lon="6.95151"><ele>856</ele><time>2017-05-17T17:18:51Z</time></trkpt>
<trkpt lat="47.01833" lon="6.95151"><ele>855.8</ele><time>2017-05-17T17:18:54Z</time></trkpt>
<trkpt lat="47.01834" lon="6.95151"><ele>855.2</ele><time>2017-05-17T17:18:59Z</time></trkpt>
<trkpt lat="47.01835" lon="6.95151"><ele>855</ele><time>2017-05-17T17:19:02Z</time></trkpt>
<trkpt lat="47.01836" lon="6.95151"><ele>854.8</ele><time>2017-05-17T17:19:05Z</time></trkpt>
<trkpt lat="47.01842" lon="6.95154"><ele>853.8</ele><time>2017-05-17T17:19:36Z</time></trkpt>
<trkpt lat="47.01844" lon="6.95159"><ele>854.8</ele><time>2017-05-17T17:19:47Z</time></trkpt>
<trkpt lat="47.01847" lon="6.95162"><ele>855.2</ele><time>2017-05-17T17:19:52Z</time></trkpt>
<trkpt lat="47.01847" lon="6.95164"><ele>855.4</ele><time>2017-05-17T17:19:54Z</time></trkpt>
<trkpt lat="47.01849" lon="6.95167"><ele>855.6</ele><time>2017-05-17T17:19:56Z</time></trkpt>
<trkpt lat="47.01851" lon="6.9517"><ele>856.4</ele><time>2017-05-17T17:20:00Z</time></trkpt>
<trkpt lat="47.01858" lon="6.95177"><ele>857.8</ele><time>2017-05-17T17:20:09Z</time></trkpt>
<trkpt lat="47.01867" lon="6.95183"><ele>859.4</ele><time>2017-05-17T17:20:20Z</time></trkpt>
<trkpt lat="47.0188" lon="6.95192"><ele>861.6</ele><time>2017-05-17T17:20:33Z</time></trkpt>
<trkpt lat="47.01892" lon="6.95206"><ele>864</ele><time>2017-05-17T17:20:47Z</time></trkpt>
<trkpt lat="47.01905" lon="6.95218"><ele>867.4</ele><time>2017-05-17T17:21:02Z</time></trkpt>
<trkpt lat="47.01908" lon="6.9522"><ele>869</ele><time>2017-05-17T17:21:12Z</time></trkpt>
<trkpt lat="47.01917" lon="6.95224"><ele>872.8</ele><time>2017-05-17T17:21:37Z</time></trkpt>
<trkpt lat="47.01917" lon="6.95214"><ele>874.6</ele><time>2017-05-17T17:21:49Z</time></trkpt>
<trkpt lat="47.01913" lon="6.95206"><ele>876</ele><time>2017-05-17T17:21:59Z</time></trkpt>
<trkpt lat="47.01912" lon="6.95204"><ele>877.2</ele><time>2017-05-17T17:22:09Z</time></trkpt>
<trkpt lat="47.01906" lon="6.95182"><ele>880.4</ele><time>2017-05-17T17:22:32Z</time></trkpt>
<trkpt lat="47.01904" lon="6.95173"><ele>882</ele><time>2017-05-17T17:22:41Z</time></trkpt>
<trkpt lat="47.01902" lon="6.95149"><ele>885.6</ele><time>2017-05-17T17:23:03Z</time></trkpt>
<trkpt lat="47.01896" lon="6.95123"><ele>890</ele><time>2017-05-17T17:23:29Z</time></trkpt>
<trkpt lat="47.01891" lon="6.95097"><ele>892.4</ele><time>2017-05-17T17:23:44Z</time></trkpt>
<trkpt lat="47.01888" lon="6.95083"><ele>895.4</ele><time>2017-05-17T17:23:53Z</time></trkpt>
<trkpt lat="47.01887" lon="6.9508"><ele>895.8</ele><time>2017-05-17T17:23:55Z</time></trkpt>
<trkpt lat="47.01881" lon="6.95054"><ele>902.2</ele><time>2017-05-17T17:24:11Z</time></trkpt>
<trkpt lat="47.01878" lon="6.95042"><ele>905.4</ele><time>2017-05-17T17:24:19Z</time></trkpt>
<trkpt lat="47.01873" lon="6.95029"><ele>908</ele><time>2017-05-17T17:24:27Z</time></trkpt>
<trkpt lat="47.01872" lon="6.95023"><ele>910</ele><time>2017-05-17T17:24:31Z</time></trkpt>
<trkpt lat="47.01864" lon="6.94998"><ele>914.8</ele><time>2017-05-17T17:24:48Z</time></trkpt>
<trkpt lat="47.01862" lon="6.94991"><ele>916.2</ele><time>2017-05-17T17:24:54Z</time></trkpt>
<trkpt lat="47.01856" lon="6.94965"><ele>920.4</ele><time>2017-05-17T17:25:13Z</time></trkpt>
<trkpt lat="47.01853" lon="6.94938"><ele>923.8</ele><time>2017-05-17T17:25:30Z</time></trkpt>
<trkpt lat="47.01853" lon="6.94935"><ele>924.4</ele><time>2017-05-17T17:25:32Z</time></trkpt>
<trkpt lat="47.01851" lon="6.94922"><ele>927.4</ele><time>2017-05-17T17:25:41Z</time></trkpt>
<trkpt lat="47.0185" lon="6.94919"><ele>928.8</ele><time>2017-05-17T17:25:44Z</time></trkpt>
<trkpt lat="47.01847" lon="6.94896"><ele>932</ele><time>2017-05-17T17:25:57Z</time></trkpt>
<trkpt lat="47.01843" lon="6.94879"><ele>935.4</ele><time>2017-05-17T17:26:09Z</time></trkpt>
<trkpt lat="47.01841" lon="6.94866"><ele>938.4</ele><time>2017-05-17T17:26:17Z</time></trkpt>
<trkpt lat="47.01836" lon="6.94841"><ele>941.2</ele><time>2017-05-17T17:26:36Z</time></trkpt>
<trkpt lat="47.01835" lon="6.94836"><ele>941.6</ele><time>2017-05-17T17:26:40Z</time></trkpt>
<trkpt lat="47.01832" lon="6.94828"><ele>942.8</ele><time>2017-05-17T17:26:47Z</time></trkpt>
<trkpt lat="47.01826" lon="6.94811"><ele>946.4</ele><time>2017-05-17T17:27:01Z</time></trkpt>
<trkpt lat="47.01825" lon="6.94798"><ele>947.8</ele><time>2017-05-17T17:27:09Z</time></trkpt>
<trkpt lat="47.01845" lon="6.94826"><ele>949.2</ele><time>2017-05-17T17:27:28Z</time></trkpt>
<trkpt lat="47.0185" lon="6.94837"><ele>948.2</ele><time>2017-05-17T17:27:33Z</time></trkpt>
<trkpt lat="47.01857" lon="6.94854"><ele>946.2</ele><time>2017-05-17T17:27:41Z</time></trkpt>
<trkpt lat="47.01866" lon="6.94876"><ele>943.4</ele><time>2017-05-17T17:27:50Z</time></trkpt>
<trkpt lat="47.01873" lon="6.94889"><ele>941.8</ele><time>2017-05-17T17:27:56Z</time></trkpt>
<trkpt lat="47.01877" lon="6.94897"><ele>941.2</ele><time>2017-05-17T17:28:00Z</time></trkpt>
<trkpt lat="47.01888" lon="6.94917"><ele>940.4</ele><time>2017-05-17T17:28:11Z</time></trkpt>
<trkpt lat="47.019" lon="6.94939"><ele>939.2</ele><time>2017-05-17T17:28:22Z</time></trkpt>
<trkpt lat="47.01907" lon="6.94948"><ele>938.6</ele><time>2017-05-17T17:28:30Z</time></trkpt>
<trkpt lat="47.01909" lon="6.94949"><ele>938.6</ele><time>2017-05-17T17:28:32Z</time></trkpt>
<trkpt lat="47.01922" lon="6.94964"><ele>939.6</ele><time>2017-05-17T17:28:45Z</time></trkpt>
<trkpt lat="47.01924" lon="6.94967"><ele>939.4</ele><time>2017-05-17T17:28:47Z</time></trkpt>
<trkpt lat="47.01928" lon="6.94971"><ele>939.8</ele><time>2017-05-17T17:28:51Z</time></trkpt>
<trkpt lat="47.01941" lon="6.9499"><ele>940.2</ele><time>2017-05-17T17:29:04Z</time></trkpt>
<trkpt lat="47.01945" lon="6.94994"><ele>940</ele><time>2017-05-17T17:29:08Z</time></trkpt>
<trkpt lat="47.0195" lon="6.94998"><ele>940.2</ele><time>2017-05-17T17:29:12Z</time></trkpt>
<trkpt lat="47.01964" lon="6.95015"><ele>941.4</ele><time>2017-05-17T17:29:25Z</time></trkpt>
<trkpt lat="47.0197" lon="6.9502"><ele>942.2</ele><time>2017-05-17T17:29:31Z</time></trkpt>
<trkpt lat="47.01986" lon="6.95034"><ele>946.4</ele><time>2017-05-17T17:29:46Z</time></trkpt>
<trkpt lat="47.02" lon="6.95052"><ele>950.6</ele><time>2017-05-17T17:30:01Z</time></trkpt>
<trkpt lat="47.02014" lon="6.9507"><ele>955.2</ele><time>2017-05-17T17:30:17Z</time></trkpt>
<trkpt lat="47.02028" lon="6.95088"><ele>959.6</ele><time>2017-05-17T17:30:32Z</time></trkpt>
<trkpt lat="47.02038" lon="6.95113"><ele>961.2</ele><time>2017-05-17T17:30:44Z</time></trkpt>
<trkpt lat="47.02046" lon="6.95138"><ele>961.8</ele><time>2017-05-17T17:30:52Z</time></trkpt>
<trkpt lat="47.02054" lon="6.95151"><ele>963</ele><time>2017-05-17T17:30:58Z</time></trkpt>
<trkpt lat="47.02064" lon="6.95173"><ele>962.4</ele><time>2017-05-17T17:31:07Z</time></trkpt>
<trkpt lat="47.02073" lon="6.95197"><ele>964.2</ele><time>2017-05-17T17:31:17Z</time></trkpt>
<trkpt lat="47.02085" lon="6.9522"><ele>964.2</ele><time>2017-05-17T17:31:27Z</time></trkpt>
<trkpt lat="47.02088" lon="6.95224"><ele>964.2</ele><time>2017-05-17T17:31:29Z</time></trkpt>
<trkpt lat="47.02103" lon="6.95242"><ele>963.4</ele><time>2017-05-17T17:31:40Z</time></trkpt>
<trkpt lat="47.02119" lon="6.95273"><ele>963.4</ele><time>2017-05-17T17:31:55Z</time></trkpt>
<trkpt lat="47.0213" lon="6.95296"><ele>963.6</ele><time>2017-05-17T17:32:07Z</time></trkpt>
<trkpt lat="47.02137" lon="6.95307"><ele>964.6</ele><time>2017-05-17T17:32:14Z</time></trkpt>
<trkpt lat="47.02139" lon="6.95312"><ele>965.2</ele><time>2017-05-17T17:32:17Z</time></trkpt>
<trkpt lat="47.02148" lon="6.95327"><ele>968.4</ele><time>2017-05-17T17:32:28Z</time></trkpt>
<trkpt lat="47.02161" lon="6.95347"><ele>971.8</ele><time>2017-05-17T17:32:41Z</time></trkpt>
<trkpt lat="47.02165" lon="6.95354"><ele>972.6</ele><time>2017-05-17T17:32:45Z</time></trkpt>
<trkpt lat="47.02171" lon="6.95362"><ele>974.2</ele><time>2017-05-17T17:32:51Z</time></trkpt>
<trkpt lat="47.02174" lon="6.95368"><ele>975</ele><time>2017-05-17T17:32:56Z</time></trkpt>
<trkpt lat="47.02183" lon="6.95381"><ele>976.8</ele><time>2017-05-17T17:33:04Z</time></trkpt>
<trkpt lat="47.02197" lon="6.95403"><ele>979.4</ele><time>2017-05-17T17:33:18Z</time></trkpt>
<trkpt lat="47.022" lon="6.95407"><ele>980</ele><time>2017-05-17T17:33:22Z</time></trkpt>
<trkpt lat="47.02213" lon="6.95428"><ele>984</ele><time>2017-05-17T17:33:36Z</time></trkpt>
<trkpt lat="47.02225" lon="6.95446"><ele>987.6</ele><time>2017-05-17T17:33:51Z</time></trkpt>
<trkpt lat="47.0224" lon="6.95462"><ele>991</ele><time>2017-05-17T17:34:08Z</time></trkpt>
<trkpt lat="47.02248" lon="6.9547"><ele>992.6</ele><time>2017-05-17T17:34:16Z</time></trkpt>
<trkpt lat="47.02253" lon="6.95468"><ele>993</ele><time>2017-05-17T17:34:20Z</time></trkpt>
<trkpt lat="47.02256" lon="6.95461"><ele>994.6</ele><time>2017-05-17T17:34:33Z</time></trkpt>
<trkpt lat="47.02258" lon="6.95457"><ele>995.4</ele><time>2017-05-17T17:34:42Z</time></trkpt>
<trkpt lat="47.0226" lon="6.95448"><ele>995.6</ele><time>2017-05-17T17:34:55Z</time></trkpt>
<trkpt lat="47.0227" lon="6.95439"><ele>996.8</ele><time>2017-05-17T17:35:13Z</time></trkpt>
<trkpt lat="47.02273" lon="6.95443"><ele>997.2</ele><time>2017-05-17T17:35:29Z</time></trkpt>
<trkpt lat="47.02272" lon="6.95444"><ele>999.4</ele><time>2017-05-17T17:36:04Z</time></trkpt>
<trkpt lat="47.02272" lon="6.95444"><ele>999.6</ele><time>2017-05-17T17:36:06Z</time></trkpt>
<trkpt lat="47.02271" lon="6.95445"><ele>999.6</ele><time>2017-05-17T17:36:07Z</time></trkpt>
<trkpt lat="47.0227" lon="6.95445"><ele>999.8</ele><time>2017-05-17T17:36:09Z</time></trkpt>
<trkpt lat="47.02269" lon="6.95444"><ele>1000.2</ele><time>2017-05-17T17:36:16Z</time></trkpt>
<trkpt lat="47.02269" lon="6.95444"><ele>1000.4</ele><time>2017-05-17T17:36:20Z</time></trkpt>
<trkpt lat="47.02269" lon="6.95445"><ele>1000.8</ele><time>2017-05-17T17:36:25Z</time></trkpt>
<trkpt lat="47.0227" lon="6.95444"><ele>1001.8</ele><time>2017-05-17T17:36:37Z</time></trkpt>
<trkpt lat="47.02271" lon="6.95442"><ele>1002.4</ele><time>2017-05-17T17:36:42Z</time></trkpt>
<trkpt lat="47.02284" lon="6.95439"><ele>1003.2</ele><time>2017-05-17T17:37:00Z</time></trkpt>
<trkpt lat="47.02289" lon="6.95443"><ele>1004.2</ele><time>2017-05-17T17:37:08Z</time></trkpt>
<trkpt lat="47.02296" lon="6.95442"><ele>1004.4</ele><time>2017-05-17T17:37:16Z</time></trkpt>
<trkpt lat="47.023" lon="6.95443"><ele>1005</ele><time>2017-05-17T17:37:24Z</time></trkpt>
<trkpt lat="47.02312" lon="6.95453"><ele>1008</ele><time>2017-05-17T17:37:43Z</time></trkpt>
<trkpt lat="47.02328" lon="6.95461"><ele>1010.4</ele><time>2017-05-17T17:38:01Z</time></trkpt>
<trkpt lat="47.02331" lon="6.95458"><ele>1011.2</ele><time>2017-05-17T17:38:05Z</time></trkpt>
<trkpt lat="47.02333" lon="6.95448"><ele>1013.2</ele><time>2017-05-17T17:38:13Z</time></trkpt>
<trkpt lat="47.02335" lon="6.95442"><ele>1013.8</ele><time>2017-05-17T17:38:18Z</time></trkpt>
<trkpt lat="47.02334" lon="6.95441"><ele>1014</ele><time>2017-05-17T17:38:20Z</time></trkpt>
<trkpt lat="47.02335" lon="6.95463"><ele>1015.4</ele><time>2017-05-17T17:38:34Z</time></trkpt>
<trkpt lat="47.02336" lon="6.95469"><ele>1015.4</ele><time>2017-05-17T17:38:38Z</time></trkpt>
<trkpt lat="47.02343" lon="6.95476"><ele>1016</ele><time>2017-05-17T17:38:47Z</time></trkpt>
<trkpt lat="47.02351" lon="6.95484"><ele>1017.8</ele><time>2017-05-17T17:38:57Z</time></trkpt>
<trkpt lat="47.02367" lon="6.95497"><ele>1022</ele><time>2017-05-17T17:39:13Z</time></trkpt>
<trkpt lat="47.02376" lon="6.9551"><ele>1024.8</ele><time>2017-05-17T17:39:28Z</time></trkpt>
<trkpt lat="47.02381" lon="6.95517"><ele>1026.6</ele><time>2017-05-17T17:39:37Z</time></trkpt>
<trkpt lat="47.02395" lon="6.95543"><ele>1031</ele><time>2017-05-17T17:39:57Z</time></trkpt>
<trkpt lat="47.02398" lon="6.95548"><ele>1031.8</ele><time>2017-05-17T17:40:01Z</time></trkpt>
<trkpt lat="47.02401" lon="6.95523"><ele>1037</ele><time>2017-05-17T17:40:27Z</time></trkpt>
<trkpt lat="47.02403" lon="6.95512"><ele>1039</ele><time>2017-05-17T17:40:37Z</time></trkpt>
<trkpt lat="47.02409" lon="6.95486"><ele>1042.6</ele><time>2017-05-17T17:40:57Z</time></trkpt>
<trkpt lat="47.02413" lon="6.95458"><ele>1044.6</ele><time>2017-05-17T17:41:16Z</time></trkpt>
<trkpt lat="47.02421" lon="6.95434"><ele>1047.8</ele><time>2017-05-17T17:41:37Z</time></trkpt>
<trkpt lat="47.02424" lon="6.95419"><ele>1051</ele><time>2017-05-17T17:41:57Z</time></trkpt>
<trkpt lat="47.02414" lon="6.95427"><ele>1051.6</ele><time>2017-05-17T17:42:38Z</time></trkpt>
<trkpt lat="47.02413" lon="6.9543"><ele>1051.6</ele><time>2017-05-17T17:42:39Z</time></trkpt>
<trkpt lat="47.02408" lon="6.95449"><ele>1050.4</ele><time>2017-05-17T17:42:44Z</time></trkpt>
<trkpt lat="47.02407" lon="6.95453"><ele>1050</ele><time>2017-05-17T17:42:45Z</time></trkpt>
<trkpt lat="47.02406" lon="6.95456"><ele>1049.4</ele><time>2017-05-17T17:42:46Z</time></trkpt>
<trkpt lat="47.02405" lon="6.9546"><ele>1048.4</ele><time>2017-05-17T17:42:47Z</time></trkpt>
<trkpt lat="47.02404" lon="6.95466"><ele>1046.6</ele><time>2017-05-17T17:42:50Z</time></trkpt>
<trkpt lat="47.02401" lon="6.95478"><ele>1045.4</ele><time>2017-05-17T17:42:53Z</time></trkpt>
<trkpt lat="47.02399" lon="6.95487"><ele>1044.2</ele><time>2017-05-17T17:42:55Z</time></trkpt>
<trkpt lat="47.02394" lon="6.95501"><ele>1043</ele><time>2017-05-17T17:42:58Z</time></trkpt>
<trkpt lat="47.02392" lon="6.95528"><ele>1040</ele><time>2017-05-17T17:43:03Z</time></trkpt>
<trkpt lat="47.02394" lon="6.95537"><ele>1038.8</ele><time>2017-05-17T17:43:07Z</time></trkpt>
<trkpt lat="47.02397" lon="6.95541"><ele>1038.8</ele><time>2017-05-17T17:43:15Z</time></trkpt>
<trkpt lat="47.02401" lon="6.9556"><ele>1037.8</ele><time>2017-05-17T17:43:22Z</time></trkpt>
<trkpt lat="47.02409" lon="6.95581"><ele>1034.8</ele><time>2017-05-17T17:43:32Z</time></trkpt>
<trkpt lat="47.02416" lon="6.95593"><ele>1033.4</ele><time>2017-05-17T17:43:39Z</time></trkpt>
<trkpt lat="47.02416" lon="6.95594"><ele>1033.2</ele><time>2017-05-17T17:43:45Z</time></trkpt>
<trkpt lat="47.02416" lon="6.95594"><ele>1033</ele><time>2017-05-17T17:43:48Z</time></trkpt>
<trkpt lat="47.02404" lon="6.95574"><ele>1032.8</ele><time>2017-05-17T17:43:57Z</time></trkpt>
<trkpt lat="47.02403" lon="6.95569"><ele>1032.8</ele><time>2017-05-17T17:43:58Z</time></trkpt>
<trkpt lat="47.02399" lon="6.9556"><ele>1033.2</ele><time>2017-05-17T17:44:00Z</time></trkpt>
<trkpt lat="47.02399" lon="6.95552"><ele>1033.6</ele><time>2017-05-17T17:44:02Z</time></trkpt>
<trkpt lat="47.024" lon="6.95538"><ele>1036.2</ele><time>2017-05-17T17:44:10Z</time></trkpt>
<trkpt lat="47.02402" lon="6.95531"><ele>1037.6</ele><time>2017-05-17T17:44:16Z</time></trkpt>
<trkpt lat="47.02404" lon="6.95515"><ele>1040.4</ele><time>2017-05-17T17:44:28Z</time></trkpt>
<trkpt lat="47.02409" lon="6.95504"><ele>1042</ele><time>2017-05-17T17:44:36Z</time></trkpt>
<trkpt lat="47.0241" lon="6.955"><ele>1042.8</ele><time>2017-05-17T17:44:40Z</time></trkpt>
<trkpt lat="47.02413" lon="6.95481"><ele>1045.4</ele><time>2017-05-17T17:44:53Z</time></trkpt>
<trkpt lat="47.02415" lon="6.9547"><ele>1045.8</ele><time>2017-05-17T17:45:00Z</time></trkpt>
<trkpt lat="47.02416" lon="6.95451"><ele>1047.4</ele><time>2017-05-17T17:45:12Z</time></trkpt>
<trkpt lat="47.02419" lon="6.95438"><ele>1049.4</ele><time>2017-05-17T17:45:24Z</time></trkpt>
<trkpt lat="47.02423" lon="6.95425"><ele>1051.8</ele><time>2017-05-17T17:45:37Z</time></trkpt>
<trkpt lat="47.02427" lon="6.9541"><ele>1055.2</ele><time>2017-05-17T17:45:52Z</time></trkpt>
<trkpt lat="47.02425" lon="6.95399"><ele>1057.6</ele><time>2017-05-17T17:46:02Z</time></trkpt>
<trkpt lat="47.02422" lon="6.95385"><ele>1060.4</ele><time>2017-05-17T17:46:13Z</time></trkpt>
<trkpt lat="47.02415" lon="6.95359"><ele>1063.4</ele><time>2017-05-17T17:46:32Z</time></trkpt>
<trkpt lat="47.02406" lon="6.95328"><ele>1067.4</ele><time>2017-05-17T17:46:58Z</time></trkpt>
<trkpt lat="47.02403" lon="6.95317"><ele>1068.8</ele><time>2017-05-17T17:47:07Z</time></trkpt>
<trkpt lat="47.02402" lon="6.95313"><ele>1069.2</ele><time>2017-05-17T17:47:10Z</time></trkpt>
<trkpt lat="47.02402" lon="6.95287"><ele>1071.6</ele><time>2017-05-17T17:47:28Z</time></trkpt>
<trkpt lat="47.02416" lon="6.95263"><ele>1075.2</ele><time>2017-05-17T17:47:51Z</time></trkpt>
<trkpt lat="47.02425" lon="6.95255"><ele>1076.6</ele><time>2017-05-17T17:48:03Z</time></trkpt>
<trkpt lat="47.02439" lon="6.95253"><ele>1078.4</ele><time>2017-05-17T17:48:16Z</time></trkpt>
<trkpt lat="47.02455" lon="6.95257"><ele>1080</ele><time>2017-05-17T17:48:34Z</time></trkpt>
<trkpt lat="47.02466" lon="6.95278"><ele>1080.2</ele><time>2017-05-17T17:48:46Z</time></trkpt>
<trkpt lat="47.02481" lon="6.95296"><ele>1081.4</ele><time>2017-05-17T17:48:57Z</time></trkpt>
<trkpt lat="47.02502" lon="6.95324"><ele>1082.6</ele><time>2017-05-17T17:49:12Z</time></trkpt>
<trkpt lat="47.02515" lon="6.95342"><ele>1082.6</ele><time>2017-05-17T17:49:22Z</time></trkpt>
<trkpt lat="47.0252" lon="6.95351"><ele>1082.6</ele><time>2017-05-17T17:49:26Z</time></trkpt>
<trkpt lat="47.02527" lon="6.95365"><ele>1083.2</ele><time>2017-05-17T17:49:34Z</time></trkpt>
<trkpt lat="47.02535" lon="6.95384"><ele>1083</ele><time>2017-05-17T17:49:42Z</time></trkpt>
<trkpt lat="47.02547" lon="6.95405"><ele>1081.6</ele><time>2017-05-17T17:49:49Z</time></trkpt>
<trkpt lat="47.0256" lon="6.95426"><ele>1080.2</ele><time>2017-05-17T17:49:56Z</time></trkpt>
<trkpt lat="47.02576" lon="6.95458"><ele>1084.8</ele><time>2017-05-17T17:50:08Z</time></trkpt>
<trkpt lat="47.02587" lon="6.9548"><ele>1086</ele><time>2017-05-17T17:50:17Z</time></trkpt>
<trkpt lat="47.02598" lon="6.95504"><ele>1085.8</ele><time>2017-05-17T17:50:26Z</time></trkpt>
<trkpt lat="47.02609" lon="6.95527"><ele>1087</ele><time>2017-05-17T17:50:34Z</time></trkpt>
<trkpt lat="47.02622" lon="6.9555"><ele>1087.4</ele><time>2017-05-17T17:50:42Z</time></trkpt>
<trkpt lat="47.02633" lon="6.9557"><ele>1089.6</ele><time>2017-05-17T17:50:50Z</time></trkpt>
<trkpt lat="47.02638" lon="6.95579"><ele>1089.4</ele><time>2017-05-17T17:50:53Z</time></trkpt>
<trkpt lat="47.0265" lon="6.956"><ele>1089.8</ele><time>2017-05-17T17:51:00Z</time></trkpt>
<trkpt lat="47.02664" lon="6.95621"><ele>1090.2</ele><time>2017-05-17T17:51:07Z</time></trkpt>
<trkpt lat="47.02676" lon="6.95643"><ele>1090.6</ele><time>2017-05-17T17:51:15Z</time></trkpt>
<trkpt lat="47.02686" lon="6.95666"><ele>1091</ele><time>2017-05-17T17:51:26Z</time></trkpt>
<trkpt lat="47.02693" lon="6.95675"><ele>1091</ele><time>2017-05-17T17:51:30Z</time></trkpt>
<trkpt lat="47.02707" lon="6.95694"><ele>1092</ele><time>2017-05-17T17:51:38Z</time></trkpt>
<trkpt lat="47.02719" lon="6.95716"><ele>1091.2</ele><time>2017-05-17T17:51:46Z</time></trkpt>
<trkpt lat="47.02723" lon="6.95742"><ele>1091.4</ele><time>2017-05-17T17:51:55Z</time></trkpt>
<trkpt lat="47.02714" lon="6.95749"><ele>1091</ele><time>2017-05-17T17:51:58Z</time></trkpt>
<trkpt lat="47.02692" lon="6.95753"><ele>1087.8</ele><time>2017-05-17T17:52:04Z</time></trkpt>
<trkpt lat="47.02678" lon="6.95757"><ele>1085.6</ele><time>2017-05-17T17:52:08Z</time></trkpt>
<trkpt lat="47.02673" lon="6.95763"><ele>1084.8</ele><time>2017-05-17T17:52:10Z</time></trkpt>
<trkpt lat="47.02661" lon="6.95771"><ele>1084.6</ele><time>2017-05-17T17:52:14Z</time></trkpt>
<trkpt lat="47.02654" lon="6.95773"><ele>1084.4</ele><time>2017-05-17T17:52:18Z</time></trkpt>
<trkpt lat="47.02653" lon="6.95774"><ele>1085.2</ele><time>2017-05-17T17:52:29Z</time></trkpt>
<trkpt lat="47.02654" lon="6.95775"><ele>1085.4</ele><time>2017-05-17T17:52:34Z</time></trkpt>
<trkpt lat="47.02654" lon="6.95775"><ele>1085.4</ele><time>2017-05-17T17:52:36Z</time></trkpt>
<trkpt lat="47.02654" lon="6.95779"><ele>1085.6</ele><time>2017-05-17T17:52:58Z</time></trkpt>
<trkpt lat="47.02653" lon="6.95779"><ele>1085.6</ele><time>2017-05-17T17:53:06Z</time></trkpt>
<trkpt lat="47.02653" lon="6.95772"><ele>1084.8</ele><time>2017-05-17T17:53:18Z</time></trkpt>
<trkpt lat="47.02652" lon="6.95771"><ele>1084.6</ele><time>2017-05-17T17:53:23Z</time></trkpt>
<trkpt lat="47.02653" lon="6.95771"><ele>1084.4</ele><time>2017-05-17T17:53:27Z</time></trkpt>
<trkpt lat="47.02655" lon="6.95773"><ele>1084.4</ele><time>2017-05-17T17:53:37Z</time></trkpt>
<trkpt lat="47.02656" lon="6.95772"><ele>1084.6</ele><time>2017-05-17T17:53:47Z</time></trkpt>
<trkpt lat="47.02658" lon="6.95772"><ele>1084.6</ele><time>2017-05-17T17:54:00Z</time></trkpt>
<trkpt lat="47.02658" lon="6.95772"><ele>1084.6</ele><time>2017-05-17T17:54:02Z</time></trkpt>
<trkpt lat="47.02657" lon="6.95771"><ele>1085.2</ele><time>2017-05-17T17:54:11Z</time></trkpt>
<trkpt lat="47.02658" lon="6.95772"><ele>1085.2</ele><time>2017-05-17T17:54:20Z</time></trkpt>
<trkpt lat="47.02662" lon="6.95775"><ele>1084.8</ele><time>2017-05-17T17:54:33Z</time></trkpt>
<trkpt lat="47.02661" lon="6.95774"><ele>1084.8</ele><time>2017-05-17T17:54:35Z</time></trkpt>
<trkpt lat="47.0266" lon="6.9577"><ele>1086.2</ele><time>2017-05-17T17:54:59Z</time></trkpt>
<trkpt lat="47.0266" lon="6.9577"><ele>1086</ele><time>2017-05-17T17:55:02Z</time></trkpt>
<trkpt lat="47.02659" lon="6.95777"><ele>1084.6</ele><time>2017-05-17T17:55:33Z</time></trkpt>
<trkpt lat="47.02657" lon="6.95776"><ele>1084.6</ele><time>2017-05-17T17:55:42Z</time></trkpt>
<trkpt lat="47.02674" lon="6.95768"><ele>1085.6</ele><time>2017-05-17T17:56:00Z</time></trkpt>
<trkpt lat="47.02677" lon="6.95766"><ele>1085.8</ele><time>2017-05-17T17:56:02Z</time></trkpt>
<trkpt lat="47.02689" lon="6.95759"><ele>1086.8</ele><time>2017-05-17T17:56:08Z</time></trkpt>
<trkpt lat="47.0268" lon="6.9574"><ele>1086.4</ele><time>2017-05-17T17:56:14Z</time></trkpt>
<trkpt lat="47.02669" lon="6.95718"><ele>1086.6</ele><time>2017-05-17T17:56:20Z</time></trkpt>
<trkpt lat="47.02658" lon="6.95694"><ele>1086.6</ele><time>2017-05-17T17:56:26Z</time></trkpt>
<trkpt lat="47.02653" lon="6.95684"><ele>1086</ele><time>2017-05-17T17:56:28Z</time></trkpt>
<trkpt lat="47.02645" lon="6.95658"><ele>1086</ele><time>2017-05-17T17:56:32Z</time></trkpt>
<trkpt lat="47.02638" lon="6.95628"><ele>1086.2</ele><time>2017-05-17T17:56:37Z</time></trkpt>
<trkpt lat="47.02628" lon="6.95608"><ele>1086.4</ele><time>2017-05-17T17:56:42Z</time></trkpt>
<trkpt lat="47.02617" lon="6.95612"><ele>1086.8</ele><time>2017-05-17T17:56:50Z</time></trkpt>
<trkpt lat="47.02618" lon="6.95613"><ele>1085</ele><time>2017-05-17T17:57:06Z</time></trkpt>
<trkpt lat="47.02618" lon="6.95613"><ele>1085.2</ele><time>2017-05-17T17:57:17Z</time></trkpt>
<trkpt lat="47.02618" lon="6.95613"><ele>1085.4</ele><time>2017-05-17T17:57:23Z</time></trkpt>
<trkpt lat="47.02618" lon="6.95612"><ele>1085.4</ele><time>2017-05-17T17:57:29Z</time></trkpt>
<trkpt lat="47.02617" lon="6.95613"><ele>1085.2</ele><time>2017-05-17T17:58:05Z</time></trkpt>
<trkpt lat="47.02617" lon="6.95613"><ele>1085.2</ele><time>2017-05-17T17:58:08Z</time></trkpt>
<trkpt lat="47.02617" lon="6.95614"><ele>1085.6</ele><time>2017-05-17T17:58:19Z</time></trkpt>
<trkpt lat="47.02618" lon="6.95599"><ele>1085.4</ele><time>2017-05-17T17:58:27Z</time></trkpt>
<trkpt lat="47.02629" lon="6.95577"><ele>1085.4</ele><time>2017-05-17T17:58:37Z</time></trkpt>
<trkpt lat="47.02632" lon="6.95574"><ele>1085.4</ele><time>2017-05-17T17:58:40Z</time></trkpt>
<trkpt lat="47.02637" lon="6.95563"><ele>1086</ele><time>2017-05-17T17:58:47Z</time></trkpt>
<trkpt lat="47.0263" lon="6.95546"><ele>1086</ele><time>2017-05-17T17:58:52Z</time></trkpt>
<trkpt lat="47.02611" lon="6.95512"><ele>1085.4</ele><time>2017-05-17T17:58:59Z</time></trkpt>
<trkpt lat="47.02597" lon="6.95486"><ele>1085.4</ele><time>2017-05-17T17:59:03Z</time></trkpt>
<trkpt lat="47.02585" lon="6.95465"><ele>1084.6</ele><time>2017-05-17T17:59:06Z</time></trkpt>
<trkpt lat="47.02573" lon="6.95441"><ele>1083.4</ele><time>2017-05-17T17:59:09Z</time></trkpt>
<trkpt lat="47.0256" lon="6.95416"><ele>1082.2</ele><time>2017-05-17T17:59:12Z</time></trkpt>
<trkpt lat="47.02547" lon="6.95389"><ele>1081.2</ele><time>2017-05-17T17:59:15Z</time></trkpt>
<trkpt lat="47.02533" lon="6.95363"><ele>1080.2</ele><time>2017-05-17T17:59:18Z</time></trkpt>
<trkpt lat="47.02517" lon="6.95336"><ele>1079.2</ele><time>2017-05-17T17:59:21Z</time></trkpt>
<trkpt lat="47.02511" lon="6.95328"><ele>1079.4</ele><time>2017-05-17T17:59:22Z</time></trkpt>
<trkpt lat="47.02498" lon="6.95311"><ele>1079</ele><time>2017-05-17T17:59:24Z</time></trkpt>
<trkpt lat="47.02484" lon="6.95293"><ele>1078.4</ele><time>2017-05-17T17:59:26Z</time></trkpt>
<trkpt lat="47.02471" lon="6.95273"><ele>1077.8</ele><time>2017-05-17T17:59:28Z</time></trkpt>
<trkpt lat="47.02459" lon="6.95252"><ele>1076.4</ele><time>2017-05-17T17:59:30Z</time></trkpt>
<trkpt lat="47.02448" lon="6.95228"><ele>1074.4</ele><time>2017-05-17T17:59:32Z</time></trkpt>
<trkpt lat="47.02436" lon="6.95203"><ele>1072.2</ele><time>2017-05-17T17:59:34Z</time></trkpt>
<trkpt lat="47.02422" lon="6.95179"><ele>1070.2</ele><time>2017-05-17T17:59:36Z</time></trkpt>
<trkpt lat="47.02409" lon="6.95154"><ele>1067.4</ele><time>2017-05-17T17:59:38Z</time></trkpt>
<trkpt lat="47.02393" lon="6.95131"><ele>1065</ele><time>2017-05-17T17:59:40Z</time></trkpt>
<trkpt lat="47.02378" lon="6.95108"><ele>1063.4</ele><time>2017-05-17T17:59:42Z</time></trkpt>
<trkpt lat="47.02371" lon="6.95096"><ele>1062.2</ele><time>2017-05-17T17:59:43Z</time></trkpt>
<trkpt lat="47.02358" lon="6.95071"><ele>1061</ele><time>2017-05-17T17:59:45Z</time></trkpt>
<trkpt lat="47.02345" lon="6.95047"><ele>1059.4</ele><time>2017-05-17T17:59:47Z</time></trkpt>
<trkpt lat="47.02339" lon="6.95036"><ele>1058.6</ele><time>2017-05-17T17:59:48Z</time></trkpt>
<trkpt lat="47.02324" lon="6.95015"><ele>1057</ele><time>2017-05-17T17:59:50Z</time></trkpt>
<trkpt lat="47.02307" lon="6.94997"><ele>1055.6</ele><time>2017-05-17T17:59:52Z</time></trkpt>
<trkpt lat="47.02289" lon="6.94979"><ele>1054.4</ele><time>2017-05-17T17:59:54Z</time></trkpt>
<trkpt lat="47.02271" lon="6.94959"><ele>1053.4</ele><time>2017-05-17T17:59:56Z</time></trkpt>
<trkpt lat="47.02254" lon="6.94938"><ele>1051.4</ele><time>2017-05-17T17:59:58Z</time></trkpt>
<trkpt lat="47.02236" lon="6.94917"><ele>1049.6</ele><time>2017-05-17T18:00:00Z</time></trkpt>
<trkpt lat="47.02218" lon="6.94895"><ele>1047.8</ele><time>2017-05-17T18:00:02Z</time></trkpt>
<trkpt lat="47.02197" lon="6.94876"><ele>1045.8</ele><time>2017-05-17T18:00:04Z</time></trkpt>
<trkpt lat="47.02175" lon="6.94861"><ele>1043.8</ele><time>2017-05-17T18:00:06Z</time></trkpt>
<trkpt lat="47.02164" lon="6.94854"><ele>1042.8</ele><time>2017-05-17T18:00:07Z</time></trkpt>
<trkpt lat="47.02143" lon="6.94837"><ele>1041</ele><time>2017-05-17T18:00:09Z</time></trkpt>
<trkpt lat="47.02123" lon="6.94815"><ele>1039.4</ele><time>2017-05-17T18:00:11Z</time></trkpt>
<trkpt lat="47.02104" lon="6.94792"><ele>1037.4</ele><time>2017-05-17T18:00:13Z</time></trkpt>
<trkpt lat="47.02085" lon="6.94771"><ele>1034.8</ele><time>2017-05-17T18:00:15Z</time></trkpt>
<trkpt lat="47.02063" lon="6.94752"><ele>1033.6</ele><time>2017-05-17T18:00:17Z</time></trkpt>
<trkpt lat="47.02042" lon="6.94732"><ele>1032.6</ele><time>2017-05-17T18:00:19Z</time></trkpt>
<trkpt lat="47.02021" lon="6.9471"><ele>1030.8</ele><time>2017-05-17T18:00:21Z</time></trkpt>
<trkpt lat="47.02" lon="6.94687"><ele>1028.6</ele><time>2017-05-17T18:00:23Z</time></trkpt>
<trkpt lat="47.01981" lon="6.94662"><ele>1026.2</ele><time>2017-05-17T18:00:25Z</time></trkpt>
<trkpt lat="47.01961" lon="6.94637"><ele>1023.2</ele><time>2017-05-17T18:00:27Z</time></trkpt>
<trkpt lat="47.0194" lon="6.94616"><ele>1020.4</ele><time>2017-05-17T18:00:29Z</time></trkpt>
<trkpt lat="47.01928" lon="6.94606"><ele>1019</ele><time>2017-05-17T18:00:30Z</time></trkpt>
<trkpt lat="47.01917" lon="6.94596"><ele>1017.6</ele><time>2017-05-17T18:00:31Z</time></trkpt>
<trkpt lat="47.01894" lon="6.94575"><ele>1015</ele><time>2017-05-17T18:00:33Z</time></trkpt>
<trkpt lat="47.01872" lon="6.94552"><ele>1012.4</ele><time>2017-05-17T18:00:35Z</time></trkpt>
<trkpt lat="47.01852" lon="6.94526"><ele>1009.2</ele><time>2017-05-17T18:00:37Z</time></trkpt>
<trkpt lat="47.01834" lon="6.94496"><ele>1005.8</ele><time>2017-05-17T18:00:39Z</time></trkpt>
<trkpt lat="47.01818" lon="6.94462"><ele>1002.4</ele><time>2017-05-17T18:00:41Z</time></trkpt>
<trkpt lat="47.018" lon="6.9443"><ele>999.4</ele><time>2017-05-17T18:00:43Z</time></trkpt>
<trkpt lat="47.01782" lon="6.94399"><ele>996.6</ele><time>2017-05-17T18:00:45Z</time></trkpt>
<trkpt lat="47.01764" lon="6.94367"><ele>993.8</ele><time>2017-05-17T18:00:47Z</time></trkpt>
<trkpt lat="47.01745" lon="6.94335"><ele>990.6</ele><time>2017-05-17T18:00:49Z</time></trkpt>
<trkpt lat="47.01725" lon="6.94306"><ele>987.8</ele><time>2017-05-17T18:00:51Z</time></trkpt>
<trkpt lat="47.01705" lon="6.94275"><ele>985</ele><time>2017-05-17T18:00:53Z</time></trkpt>
<trkpt lat="47.01686" lon="6.94244"><ele>982.4</ele><time>2017-05-17T18:00:55Z</time></trkpt>
<trkpt lat="47.01665" lon="6.94214"><ele>979.6</ele><time>2017-05-17T18:00:57Z</time></trkpt>
<trkpt lat="47.01646" lon="6.94182"><ele>977.2</ele><time>2017-05-17T18:00:59Z</time></trkpt>
<trkpt lat="47.01624" lon="6.94152"><ele>974.8</ele><time>2017-05-17T18:01:01Z</time></trkpt>
<trkpt lat="47.01615" lon="6.94136"><ele>973.2</ele><time>2017-05-17T18:01:02Z</time></trkpt>
<trkpt lat="47.01596" lon="6.94103"><ele>970.2</ele><time>2017-05-17T18:01:04Z</time></trkpt>
<trkpt lat="47.01578" lon="6.9407"><ele>967.2</ele><time>2017-05-17T18:01:06Z</time></trkpt>
<trkpt lat="47.01561" lon="6.94038"><ele>963.6</ele><time>2017-05-17T18:01:08Z</time></trkpt>
<trkpt lat="47.01544" lon="6.94006"><ele>960.4</ele><time>2017-05-17T18:01:10Z</time></trkpt>
<trkpt lat="47.01527" lon="6.93974"><ele>957</ele><time>2017-05-17T18:01:12Z</time></trkpt>
<trkpt lat="47.0151" lon="6.93942"><ele>953.8</ele><time>2017-05-17T18:01:14Z</time></trkpt>
<trkpt lat="47.01492" lon="6.93911"><ele>950.8</ele><time>2017-05-17T18:01:16Z</time></trkpt>
<trkpt lat="47.01476" lon="6.93879"><ele>947.8</ele><time>2017-05-17T18:01:18Z</time></trkpt>
<trkpt lat="47.01459" lon="6.93846"><ele>944.8</ele><time>2017-05-17T18:01:20Z</time></trkpt>
<trkpt lat="47.01441" lon="6.93813"><ele>941.8</ele><time>2017-05-17T18:01:22Z</time></trkpt>
<trkpt lat="47.01424" lon="6.93779"><ele>938.6</ele><time>2017-05-17T18:01:24Z</time></trkpt>
<trkpt lat="47.01405" lon="6.93743"><ele>933.6</ele><time>2017-05-17T18:01:26Z</time></trkpt>
<trkpt lat="47.01387" lon="6.93707"><ele>929.2</ele><time>2017-05-17T18:01:28Z</time></trkpt>
<trkpt lat="47.01368" lon="6.93672"><ele>925.8</ele><time>2017-05-17T18:01:30Z</time></trkpt>
<trkpt lat="47.0135" lon="6.93637"><ele>922.4</ele><time>2017-05-17T18:01:32Z</time></trkpt>
<trkpt lat="47.01332" lon="6.93601"><ele>919.2</ele><time>2017-05-17T18:01:34Z</time></trkpt>
<trkpt lat="47.01316" lon="6.93564"><ele>915.8</ele><time>2017-05-17T18:01:36Z</time></trkpt>
<trkpt lat="47.013" lon="6.93525"><ele>911.6</ele><time>2017-05-17T18:01:38Z</time></trkpt>
<trkpt lat="47.01282" lon="6.93489"><ele>908.2</ele><time>2017-05-17T18:01:40Z</time></trkpt>
<trkpt lat="47.01263" lon="6.93454"><ele>904</ele><time>2017-05-17T18:01:42Z</time></trkpt>
<trkpt lat="47.01244" lon="6.93419"><ele>900.4</ele><time>2017-05-17T18:01:44Z</time></trkpt>
<trkpt lat="47.01234" lon="6.93402"><ele>898.8</ele><time>2017-05-17T18:01:45Z</time></trkpt>
<trkpt lat="47.01214" lon="6.9337"><ele>896</ele><time>2017-05-17T18:01:47Z</time></trkpt>
<trkpt lat="47.01194" lon="6.93338"><ele>892.8</ele><time>2017-05-17T18:01:49Z</time></trkpt>
<trkpt lat="47.01174" lon="6.93307"><ele>889.4</ele><time>2017-05-17T18:01:51Z</time></trkpt>
<trkpt lat="47.01156" lon="6.93275"><ele>885.4</ele><time>2017-05-17T18:01:53Z</time></trkpt>
<trkpt lat="47.01142" lon="6.93239"><ele>881.2</ele><time>2017-05-17T18:01:55Z</time></trkpt>
<trkpt lat="47.01136" lon="6.93221"><ele>879.4</ele><time>2017-05-17T18:01:56Z</time></trkpt>
<trkpt lat="47.0113" lon="6.93184"><ele>874</ele><time>2017-05-17T18:01:58Z</time></trkpt>
<trkpt lat="47.01131" lon="6.93146"><ele>870</ele><time>2017-05-17T18:02:00Z</time></trkpt>
<trkpt lat="47.01133" lon="6.93111"><ele>866.8</ele><time>2017-05-17T18:02:02Z</time></trkpt>
<trkpt lat="47.01139" lon="6.9308"><ele>863.4</ele><time>2017-05-17T18:02:04Z</time></trkpt>
<trkpt lat="47.01142" lon="6.93066"><ele>862</ele><time>2017-05-17T18:02:05Z</time></trkpt>
<trkpt lat="47.01149" lon="6.9304"><ele>859</ele><time>2017-05-17T18:02:07Z</time></trkpt>
<trkpt lat="47.01147" lon="6.9301"><ele>857.4</ele><time>2017-05-17T18:02:09Z</time></trkpt>
<trkpt lat="47.01139" lon="6.92982"><ele>855.4</ele><time>2017-05-17T18:02:11Z</time></trkpt>
<trkpt lat="47.01128" lon="6.92954"><ele>853.4</ele><time>2017-05-17T18:02:13Z</time></trkpt>
<trkpt lat="47.01111" lon="6.92931"><ele>851</ele><time>2017-05-17T18:02:15Z</time></trkpt>
<trkpt lat="47.01092" lon="6.92909"><ele>848.8</ele><time>2017-05-17T18:02:17Z</time></trkpt>
<trkpt lat="47.01078" lon="6.92879"><ele>846</ele><time>2017-05-17T18:02:19Z</time></trkpt>
<trkpt lat="47.01072" lon="6.92861"><ele>844.4</ele><time>2017-05-17T18:02:20Z</time></trkpt>
<trkpt lat="47.01062" lon="6.92826"><ele>840.6</ele><time>2017-05-17T18:02:22Z</time></trkpt>
<trkpt lat="47.01058" lon="6.92808"><ele>838.8</ele><time>2017-05-17T18:02:23Z</time></trkpt>
<trkpt lat="47.0105" lon="6.92771"><ele>835.6</ele><time>2017-05-17T18:02:25Z</time></trkpt>
<trkpt lat="47.01041" lon="6.92734"><ele>832</ele><time>2017-05-17T18:02:27Z</time></trkpt>
<trkpt lat="47.01032" lon="6.92697"><ele>828.4</ele><time>2017-05-17T18:02:29Z</time></trkpt>
<trkpt lat="47.01024" lon="6.92659"><ele>823.8</ele><time>2017-05-17T18:02:31Z</time></trkpt>
<trkpt lat="47.01019" lon="6.92619"><ele>819.4</ele><time>2017-05-17T18:02:33Z</time></trkpt>
<trkpt lat="47.01016" lon="6.92577"><ele>815.2</ele><time>2017-05-17T18:02:35Z</time></trkpt>
<trkpt lat="47.01013" lon="6.92539"><ele>812.4</ele><time>2017-05-17T18:02:37Z</time></trkpt>
<trkpt lat="47.01006" lon="6.92502"><ele>809.8</ele><time>2017-05-17T18:02:39Z</time></trkpt>
<trkpt lat="47.01003" lon="6.92483"><ele>808</ele><time>2017-05-17T18:02:40Z</time></trkpt>
<trkpt lat="47.01004" lon="6.92446"><ele>804.2</ele><time>2017-05-17T18:02:42Z</time></trkpt>
<trkpt lat="47.0101" lon="6.92412"><ele>801</ele><time>2017-05-17T18:02:44Z</time></trkpt>
<trkpt lat="47.01014" lon="6.9238"><ele>798.4</ele><time>2017-05-17T18:02:46Z</time></trkpt>
<trkpt lat="47.01009" lon="6.92345"><ele>796.2</ele><time>2017-05-17T18:02:48Z</time></trkpt>
<trkpt lat="47.00998" lon="6.92312"><ele>794</ele><time>2017-05-17T18:02:50Z</time></trkpt>
<trkpt lat="47.00987" lon="6.92278"><ele>791.2</ele><time>2017-05-17T18:02:52Z</time></trkpt>
<trkpt lat="47.00983" lon="6.9226"><ele>789.6</ele><time>2017-05-17T18:02:53Z</time></trkpt>
<trkpt lat="47.00978" lon="6.92221"><ele>786.4</ele><time>2017-05-17T18:02:55Z</time></trkpt>
<trkpt lat="47.00976" lon="6.92201"><ele>784.6</ele><time>2017-05-17T18:02:56Z</time></trkpt>
<trkpt lat="47.00974" lon="6.92181"><ele>783</ele><time>2017-05-17T18:02:57Z</time></trkpt>
<trkpt lat="47.00971" lon="6.92161"><ele>781.4</ele><time>2017-05-17T18:02:58Z</time></trkpt>
<trkpt lat="47.00966" lon="6.92121"><ele>778.4</ele><time>2017-05-17T18:03:00Z</time></trkpt>
<trkpt lat="47.00959" lon="6.92082"><ele>775.2</ele><time>2017-05-17T18:03:02Z</time></trkpt>
<trkpt lat="47.00951" lon="6.92044"><ele>772.2</ele><time>2017-05-17T18:03:04Z</time></trkpt>
<trkpt lat="47.00943" lon="6.92008"><ele>769</ele><time>2017-05-17T18:03:06Z</time></trkpt>
<trkpt lat="47.00933" lon="6.91974"><ele>766</ele><time>2017-05-17T18:03:08Z</time></trkpt>
<trkpt lat="47.00926" lon="6.91959"><ele>765</ele><time>2017-05-17T18:03:09Z</time></trkpt>
<trkpt lat="47.00909" lon="6.91931"><ele>763.4</ele><time>2017-05-17T18:03:11Z</time></trkpt>
<trkpt lat="47.00891" lon="6.91905"><ele>761.6</ele><time>2017-05-17T18:03:13Z</time></trkpt>
<trkpt lat="47.00871" lon="6.91882"><ele>759.8</ele><time>2017-05-17T18:03:15Z</time></trkpt>
<trkpt lat="47.00847" lon="6.91868"><ele>757.6</ele><time>2017-05-17T18:03:17Z</time></trkpt>
<trkpt lat="47.0082" lon="6.91866"><ele>755.6</ele><time>2017-05-17T18:03:19Z</time></trkpt>
<trkpt lat="47.00793" lon="6.91869"><ele>753</ele><time>2017-05-17T18:03:21Z</time></trkpt>
<trkpt lat="47.00779" lon="6.91868"><ele>751</ele><time>2017-05-17T18:03:22Z</time></trkpt>
<trkpt lat="47.00753" lon="6.91859"><ele>748.4</ele><time>2017-05-17T18:03:24Z</time></trkpt>
<trkpt lat="47.0073" lon="6.91839"><ele>745.8</ele><time>2017-05-17T18:03:26Z</time></trkpt>
<trkpt lat="47.00715" lon="6.91813"><ele>742.8</ele><time>2017-05-17T18:03:28Z</time></trkpt>
<trkpt lat="47.00708" lon="6.918"><ele>741.4</ele><time>2017-05-17T18:03:29Z</time></trkpt>
<trkpt lat="47.00702" lon="6.91791"><ele>740</ele><time>2017-05-17T18:03:30Z</time></trkpt>
<trkpt lat="47.00679" lon="6.91789"><ele>737.2</ele><time>2017-05-17T18:03:33Z</time></trkpt>
<trkpt lat="47.0066" lon="6.91816"><ele>733.8</ele><time>2017-05-17T18:03:36Z</time></trkpt>
<trkpt lat="47.00655" lon="6.91828"><ele>733</ele><time>2017-05-17T18:03:37Z</time></trkpt>
<trkpt lat="47.00643" lon="6.91853"><ele>731.4</ele><time>2017-05-17T18:03:39Z</time></trkpt>
<trkpt lat="47.00631" lon="6.9188"><ele>730.2</ele><time>2017-05-17T18:03:41Z</time></trkpt>
<trkpt lat="47.00621" lon="6.91905"><ele>728.6</ele><time>2017-05-17T18:03:43Z</time></trkpt>
<trkpt lat="47.00611" lon="6.91931"><ele>727.4</ele><time>2017-05-17T18:03:45Z</time></trkpt>
<trkpt lat="47.00599" lon="6.91957"><ele>726</ele><time>2017-05-17T18:03:47Z</time></trkpt>
<trkpt lat="47.00589" lon="6.91985"><ele>725.4</ele><time>2017-05-17T18:03:49Z</time></trkpt>
<trkpt lat="47.00585" lon="6.92018"><ele>724</ele><time>2017-05-17T18:03:51Z</time></trkpt>
<trkpt lat="47.00591" lon="6.92053"><ele>721.8</ele><time>2017-05-17T18:03:53Z</time></trkpt>
<trkpt lat="47.00601" lon="6.92086"><ele>719.2</ele><time>2017-05-17T18:03:55Z</time></trkpt>
<trkpt lat="47.00613" lon="6.92119"><ele>717</ele><time>2017-05-17T18:03:57Z</time></trkpt>
<trkpt lat="47.00625" lon="6.92153"><ele>715</ele><time>2017-05-17T18:03:59Z</time></trkpt>
<trkpt lat="47.0063" lon="6.9217"><ele>714</ele><time>2017-05-17T18:04:00Z</time></trkpt>
<trkpt lat="47.00631" lon="6.92203"><ele>711.2</ele><time>2017-05-17T18:04:02Z</time></trkpt>
<trkpt lat="47.00628" lon="6.92216"><ele>709.2</ele><time>2017-05-17T18:04:03Z</time></trkpt>
<trkpt lat="47.00618" lon="6.92242"><ele>706.2</ele><time>2017-05-17T18:04:05Z</time></trkpt>
<trkpt lat="47.00603" lon="6.92265"><ele>703</ele><time>2017-05-17T18:04:07Z</time></trkpt>
<trkpt lat="47.00584" lon="6.92282"><ele>699.8</ele><time>2017-05-17T18:04:09Z</time></trkpt>
<trkpt lat="47.00561" lon="6.92284"><ele>696.2</ele><time>2017-05-17T18:04:11Z</time></trkpt>
<trkpt lat="47.0055" lon="6.92279"><ele>694.8</ele><time>2017-05-17T18:04:12Z</time></trkpt>
<trkpt lat="47.00528" lon="6.92266"><ele>691.4</ele><time>2017-05-17T18:04:14Z</time></trkpt>
<trkpt lat="47.00504" lon="6.92251"><ele>688</ele><time>2017-05-17T18:04:16Z</time></trkpt>
<trkpt lat="47.00481" lon="6.92236"><ele>684.4</ele><time>2017-05-17T18:04:18Z</time></trkpt>
<trkpt lat="47.00469" lon="6.92227"><ele>682.6</ele><time>2017-05-17T18:04:19Z</time></trkpt>
<trkpt lat="47.00448" lon="6.92206"><ele>678.4</ele><time>2017-05-17T18:04:21Z</time></trkpt>
<trkpt lat="47.00425" lon="6.92187"><ele>674.8</ele><time>2017-05-17T18:04:23Z</time></trkpt>
<trkpt lat="47.00414" lon="6.92179"><ele>673</ele><time>2017-05-17T18:04:24Z</time></trkpt>
<trkpt lat="47.0039" lon="6.92166"><ele>670.2</ele><time>2017-05-17T18:04:26Z</time></trkpt>
<trkpt lat="47.00364" lon="6.92156"><ele>667</ele><time>2017-05-17T18:04:28Z</time></trkpt>
<trkpt lat="47.00337" lon="6.92147"><ele>664.6</ele><time>2017-05-17T18:04:30Z</time></trkpt>
<trkpt lat="47.00313" lon="6.92137"><ele>661.8</ele><time>2017-05-17T18:04:32Z</time></trkpt>
<trkpt lat="47.0029" lon="6.92128"><ele>659.6</ele><time>2017-05-17T18:04:34Z</time></trkpt>
<trkpt lat="47.0027" lon="6.92124"><ele>657.8</ele><time>2017-05-17T18:04:36Z</time></trkpt>
<trkpt lat="47.00252" lon="6.92116"><ele>654.6</ele><time>2017-05-17T18:04:39Z</time></trkpt>
<trkpt lat="47.00246" lon="6.92102"><ele>653</ele><time>2017-05-17T18:04:41Z</time></trkpt>
<trkpt lat="47.00235" lon="6.92078"><ele>654</ele><time>2017-05-17T18:04:45Z</time></trkpt>
<trkpt lat="47.0023" lon="6.92068"><ele>654.2</ele><time>2017-05-17T18:04:47Z</time></trkpt>
<trkpt lat="47.00222" lon="6.9205"><ele>655</ele><time>2017-05-17T18:04:51Z</time></trkpt>
<trkpt lat="47.00217" lon="6.92041"><ele>656.6</ele><time>2017-05-17T18:04:53Z</time></trkpt>
<trkpt lat="47.0021" lon="6.92027"><ele>658.8</ele><time>2017-05-17T18:04:56Z</time></trkpt>
<trkpt lat="47.00199" lon="6.92003"><ele>662</ele><time>2017-05-17T18:05:01Z</time></trkpt>
<trkpt lat="47.00198" lon="6.91998"><ele>662.4</ele><time>2017-05-17T18:05:02Z</time></trkpt>
<trkpt lat="47.00195" lon="6.91988"><ele>663.4</ele><time>2017-05-17T18:05:04Z</time></trkpt>
<trkpt lat="47.00191" lon="6.91963"><ele>666</ele><time>2017-05-17T18:05:09Z</time></trkpt>
<trkpt lat="47.00186" lon="6.91938"><ele>668.2</ele><time>2017-05-17T18:05:14Z</time></trkpt>
<trkpt lat="47.00182" lon="6.91916"><ele>670.6</ele><time>2017-05-17T18:05:19Z</time></trkpt>
<trkpt lat="47.00178" lon="6.91892"><ele>670.6</ele><time>2017-05-17T18:05:26Z</time></trkpt>
<trkpt lat="47.00172" lon="6.91862"><ele>669.2</ele><time>2017-05-17T18:05:31Z</time></trkpt>
<trkpt lat="47.00165" lon="6.91832"><ele>666.6</ele><time>2017-05-17T18:05:36Z</time></trkpt>
<trkpt lat="47.00161" lon="6.91806"><ele>666.4</ele><time>2017-05-17T18:05:40Z</time></trkpt>
<trkpt lat="47.00157" lon="6.91775"><ele>666.4</ele><time>2017-05-17T18:05:45Z</time></trkpt>
<trkpt lat="47.00153" lon="6.91745"><ele>666.4</ele><time>2017-05-17T18:05:50Z</time></trkpt>
<trkpt lat="47.00151" lon="6.91727"><ele>666.2</ele><time>2017-05-17T18:05:53Z</time></trkpt>
<trkpt lat="47.00144" lon="6.91701"><ele>667</ele><time>2017-05-17T18:05:57Z</time></trkpt>
<trkpt lat="47.00134" lon="6.91676"><ele>666.4</ele><time>2017-05-17T18:06:01Z</time></trkpt>
<trkpt lat="47.00122" lon="6.91654"><ele>666.2</ele><time>2017-05-17T18:06:05Z</time></trkpt>
<trkpt lat="47.00108" lon="6.91632"><ele>666</ele><time>2017-05-17T18:06:09Z</time></trkpt>
<trkpt lat="47.00096" lon="6.9161"><ele>666.4</ele><time>2017-05-17T18:06:13Z</time></trkpt>
<trkpt lat="47.00083" lon="6.91588"><ele>666.8</ele><time>2017-05-17T18:06:17Z</time></trkpt>
<trkpt lat="47.0007" lon="6.91568"><ele>667.8</ele><time>2017-05-17T18:06:21Z</time></trkpt>
<trkpt lat="47.00063" lon="6.91557"><ele>668.2</ele><time>2017-05-17T18:06:23Z</time></trkpt>
<trkpt lat="47.00051" lon="6.91534"><ele>668.6</ele><time>2017-05-17T18:06:27Z</time></trkpt>
<trkpt lat="47.00048" lon="6.91528"><ele>668.4</ele><time>2017-05-17T18:06:28Z</time></trkpt>
<trkpt lat="47.0004" lon="6.91501"><ele>666.6</ele><time>2017-05-17T18:06:32Z</time></trkpt>
<trkpt lat="47.00037" lon="6.91473"><ele>665.4</ele><time>2017-05-17T18:06:36Z</time></trkpt>
<trkpt lat="47.00037" lon="6.91459"><ele>664.6</ele><time>2017-05-17T18:06:38Z</time></trkpt>
<trkpt lat="47.00039" lon="6.91444"><ele>664.2</ele><time>2017-05-17T18:06:40Z</time></trkpt>
<trkpt lat="47.00044" lon="6.91419"><ele>662.8</ele><time>2017-05-17T18:06:43Z</time></trkpt>
<trkpt lat="47.00045" lon="6.91401"><ele>662</ele><time>2017-05-17T18:06:45Z</time></trkpt>
<trkpt lat="47.0004" lon="6.9138"><ele>661.2</ele><time>2017-05-17T18:06:48Z</time></trkpt>
<trkpt lat="47.00038" lon="6.91376"><ele>660.6</ele><time>2017-05-17T18:06:50Z</time></trkpt>
<trkpt lat="47.00038" lon="6.91375"><ele>661</ele><time>2017-05-17T18:06:56Z</time></trkpt>
<trkpt lat="47.00019" lon="6.9138"><ele>660.6</ele><time>2017-05-17T18:07:04Z</time></trkpt>
<trkpt lat="47.00013" lon="6.91385"><ele>660.4</ele><time>2017-05-17T18:07:05Z</time></trkpt>
<trkpt lat="46.99993" lon="6.91375"><ele>659</ele><time>2017-05-17T18:07:09Z</time></trkpt>
<trkpt lat="46.99987" lon="6.91349"><ele>658.8</ele><time>2017-05-17T18:07:12Z</time></trkpt>
<trkpt lat="46.9998" lon="6.91318"><ele>658.2</ele><time>2017-05-17T18:07:16Z</time></trkpt>
<trkpt lat="46.99977" lon="6.91302"><ele>657.6</ele><time>2017-05-17T18:07:18Z</time></trkpt>
<trkpt lat="46.99971" lon="6.91276"><ele>657.6</ele><time>2017-05-17T18:07:22Z</time></trkpt>
<trkpt lat="46.99966" lon="6.91258"><ele>658.4</ele><time>2017-05-17T18:07:25Z</time></trkpt>
<trkpt lat="46.99964" lon="6.91252"><ele>658.4</ele><time>2017-05-17T18:07:26Z</time></trkpt>
<trkpt lat="46.9996" lon="6.91227"><ele>658.6</ele><time>2017-05-17T18:07:30Z</time></trkpt>
<trkpt lat="46.99958" lon="6.91209"><ele>659</ele><time>2017-05-17T18:07:33Z</time></trkpt>
<trkpt lat="46.99953" lon="6.91178"><ele>659</ele><time>2017-05-17T18:07:38Z</time></trkpt>
<trkpt lat="46.99949" lon="6.91159"><ele>658.8</ele><time>2017-05-17T18:07:41Z</time></trkpt>
<trkpt lat="46.99946" lon="6.91146"><ele>658.8</ele><time>2017-05-17T18:07:43Z</time></trkpt>
<trkpt lat="46.99945" lon="6.91139"><ele>658.8</ele><time>2017-05-17T18:07:44Z</time></trkpt>
<trkpt lat="46.99939" lon="6.91114"><ele>658.6</ele><time>2017-05-17T18:07:48Z</time></trkpt>
<trkpt lat="46.99936" lon="6.91099"><ele>659.2</ele><time>2017-05-17T18:07:51Z</time></trkpt>
<trkpt lat="46.99929" lon="6.91071"><ele>660.4</ele><time>2017-05-17T18:07:56Z</time></trkpt>
<trkpt lat="46.99928" lon="6.91065"><ele>660.6</ele><time>2017-05-17T18:07:57Z</time></trkpt>
<trkpt lat="46.99922" lon="6.9104"><ele>660.8</ele><time>2017-05-17T18:08:01Z</time></trkpt>
<trkpt lat="46.9992" lon="6.91033"><ele>660.6</ele><time>2017-05-17T18:08:02Z</time></trkpt>
<trkpt lat="46.99917" lon="6.9102"><ele>660.6</ele><time>2017-05-17T18:08:04Z</time></trkpt>
<trkpt lat="46.99912" lon="6.90993"><ele>660.6</ele><time>2017-05-17T18:08:08Z</time></trkpt>
<trkpt lat="46.99906" lon="6.90966"><ele>659.8</ele><time>2017-05-17T18:08:12Z</time></trkpt>
<trkpt lat="46.99899" lon="6.90938"><ele>660</ele><time>2017-05-17T18:08:16Z</time></trkpt>
<trkpt lat="46.99892" lon="6.90909"><ele>659.4</ele><time>2017-05-17T18:08:20Z</time></trkpt>
<trkpt lat="46.99885" lon="6.90881"><ele>659.4</ele><time>2017-05-17T18:08:24Z</time></trkpt>
<trkpt lat="46.99878" lon="6.90852"><ele>659.6</ele><time>2017-05-17T18:08:28Z</time></trkpt>
<trkpt lat="46.9987" lon="6.90824"><ele>660.8</ele><time>2017-05-17T18:08:32Z</time></trkpt>
<trkpt lat="46.99869" lon="6.90817"><ele>660.8</ele><time>2017-05-17T18:08:33Z</time></trkpt>
<trkpt lat="46.99863" lon="6.90788"><ele>661.4</ele><time>2017-05-17T18:08:37Z</time></trkpt>
<trkpt lat="46.99857" lon="6.9076"><ele>661.8</ele><time>2017-05-17T18:08:41Z</time></trkpt>
<trkpt lat="46.99849" lon="6.90736"><ele>661.2</ele><time>2017-05-17T18:08:45Z</time></trkpt>
<trkpt lat="46.99832" lon="6.90752"><ele>661.2</ele><time>2017-05-17T18:08:50Z</time></trkpt>
<trkpt lat="46.99828" lon="6.90773"><ele>660.8</ele><time>2017-05-17T18:08:53Z</time></trkpt>
<trkpt lat="46.99828" lon="6.90781"><ele>661</ele><time>2017-05-17T18:08:54Z</time></trkpt>
<trkpt lat="46.99829" lon="6.90796"><ele>660.2</ele><time>2017-05-17T18:08:56Z</time></trkpt>
<trkpt lat="46.99835" lon="6.90827"><ele>658.8</ele><time>2017-05-17T18:09:00Z</time></trkpt>
<trkpt lat="46.99835" lon="6.90834"><ele>658.6</ele><time>2017-05-17T18:09:01Z</time></trkpt>
<trkpt lat="46.99828" lon="6.9086"><ele>659.2</ele><time>2017-05-17T18:09:05Z</time></trkpt>
<trkpt lat="46.99825" lon="6.90863"><ele>659</ele><time>2017-05-17T18:09:06Z</time></trkpt>
<trkpt lat="46.99819" lon="6.90871"><ele>658.8</ele><time>2017-05-17T18:09:10Z</time></trkpt>
<trkpt lat="46.99816" lon="6.9088"><ele>658</ele><time>2017-05-17T18:09:14Z</time></trkpt>
<trkpt lat="46.99814" lon="6.90885"><ele>657.8</ele><time>2017-05-17T18:09:16Z</time></trkpt>
<trkpt lat="46.99809" lon="6.90889"><ele>657.4</ele><time>2017-05-17T18:09:19Z</time></trkpt>
<trkpt lat="46.99794" lon="6.90906"><ele>655.4</ele><time>2017-05-17T18:09:25Z</time></trkpt>
<trkpt lat="46.9979" lon="6.90912"><ele>654.8</ele><time>2017-05-17T18:09:27Z</time></trkpt>
<trkpt lat="46.99776" lon="6.9093"><ele>651.8</ele><time>2017-05-17T18:09:33Z</time></trkpt>
<trkpt lat="46.99765" lon="6.90947"><ele>649.2</ele><time>2017-05-17T18:09:39Z</time></trkpt>
<trkpt lat="46.99766" lon="6.90953"><ele>648.6</ele><time>2017-05-17T18:09:42Z</time></trkpt>
<trkpt lat="46.99767" lon="6.90958"><ele>646.8</ele><time>2017-05-17T18:09:47Z</time></trkpt>
<trkpt lat="46.99765" lon="6.90962"><ele>647.4</ele><time>2017-05-17T18:09:53Z</time></trkpt>
<trkpt lat="46.99765" lon="6.90963"><ele>647.6</ele><time>2017-05-17T18:09:57Z</time></trkpt>
<trkpt lat="46.99764" lon="6.90964"><ele>647.4</ele><time>2017-05-17T18:09:58Z</time></trkpt>
<trkpt lat="46.99763" lon="6.90966"><ele>647.6</ele><time>2017-05-17T18:10:01Z</time></trkpt>
<trkpt lat="46.99763" lon="6.90967"><ele>647.2</ele><time>2017-05-17T18:10:04Z</time></trkpt>
<trkpt lat="46.99763" lon="6.90967"><ele>647.4</ele><time>2017-05-17T18:10:05Z</time></trkpt>
</trkseg></trk></gpx>